<?xml version="1.0" encoding="UTF-8" standalone="no" ?>
<gpx xmlns="http://www.topografix.com/GPX/1/1" xmlns:xsi="http://www.w3.org/2001/XMLSchema-instance" xsi:schemaLocation="http://www.topografix.com/GPX/1/1 http://www.topografix.com/GPX/1/1/gpx.xsd" version="1.1" creator="VisuGPX - https://www.visugpx.com">
  <metadata>
    <name>DOULOVY COUCOURDIER</name>
    <desc><![CDATA[Départ à environ 1km à la sortie du Mazel,(quand on arrive de Pigères) ,commune de Banne. Se stationner sur la droite, il y a un joli point de vue , avec table d'orientation et banc à disposition. L'arrivée se fait à cet endroit là.
A partir de là, on fait environ 1km de route et ensuite on prend la piste à droite qui descend sur le Doulovy.
En fin de parcours, après la bonne montée, ça vaut le coup de faire un petit crochet pour voir le mas du Coucourdier.
Ne pas se fier à notre temps de rando, nous étions avec des chèvres. Il fallait leur laisser le temps de paître.]]></desc>
  </metadata>
  <trk>
    <name><![CDATA[DOULOVY COUCOURDIER]]></name>
    <trkseg>
      <trkpt lat="44.36034" lon="4.13465">
        <ele>402.93</ele>
        <time>2022-03-17T12:46:10Z</time>
      </trkpt>
      <trkpt lat="44.36033" lon="4.13465">
        <ele>403.41</ele>
        <time>2022-03-17T12:46:34Z</time>
      </trkpt>
      <trkpt lat="44.36033" lon="4.13466">
        <ele>403.89</ele>
        <time>2022-03-17T12:46:46Z</time>
      </trkpt>
      <trkpt lat="44.36034" lon="4.13467">
        <ele>403.41</ele>
        <time>2022-03-17T12:47:01Z</time>
      </trkpt>
      <trkpt lat="44.36035" lon="4.13466">
        <ele>403.89</ele>
        <time>2022-03-17T12:47:17Z</time>
      </trkpt>
      <trkpt lat="44.36035" lon="4.13466">
        <ele>403.89</ele>
        <time>2022-03-17T12:47:39Z</time>
      </trkpt>
      <trkpt lat="44.36035" lon="4.13466">
        <ele>403.41</ele>
        <time>2022-03-17T12:47:57Z</time>
      </trkpt>
      <trkpt lat="44.36035" lon="4.13466">
        <ele>402.93</ele>
        <time>2022-03-17T12:48:18Z</time>
      </trkpt>
      <trkpt lat="44.36036" lon="4.13465">
        <ele>403.89</ele>
        <time>2022-03-17T12:48:41Z</time>
      </trkpt>
      <trkpt lat="44.36043" lon="4.13465">
        <ele>404.85</ele>
        <time>2022-03-17T12:48:54Z</time>
      </trkpt>
      <trkpt lat="44.36048" lon="4.13467">
        <ele>404.85</ele>
        <time>2022-03-17T12:49:07Z</time>
      </trkpt>
      <trkpt lat="44.36051" lon="4.13469">
        <ele>404.85</ele>
        <time>2022-03-17T12:49:13Z</time>
      </trkpt>
      <trkpt lat="44.36055" lon="4.13482">
        <ele>405.33</ele>
        <time>2022-03-17T12:49:26Z</time>
      </trkpt>
      <trkpt lat="44.36054" lon="4.13487">
        <ele>405.33</ele>
        <time>2022-03-17T12:49:37Z</time>
      </trkpt>
      <trkpt lat="44.36057" lon="4.13489">
        <ele>405.81</ele>
        <time>2022-03-17T12:49:50Z</time>
      </trkpt>
      <trkpt lat="44.36057" lon="4.1349">
        <ele>405.81</ele>
        <time>2022-03-17T12:49:55Z</time>
      </trkpt>
      <trkpt lat="44.36056" lon="4.13494">
        <ele>405.81</ele>
        <time>2022-03-17T12:49:57Z</time>
      </trkpt>
      <trkpt lat="44.36055" lon="4.13498">
        <ele>405.81</ele>
        <time>2022-03-17T12:50:11Z</time>
      </trkpt>
      <trkpt lat="44.36054" lon="4.13497">
        <ele>405.81</ele>
        <time>2022-03-17T12:50:20Z</time>
      </trkpt>
      <trkpt lat="44.36054" lon="4.13498">
        <ele>406.29</ele>
        <time>2022-03-17T12:50:21Z</time>
      </trkpt>
      <trkpt lat="44.36049" lon="4.13503">
        <ele>405.81</ele>
        <time>2022-03-17T12:50:30Z</time>
      </trkpt>
      <trkpt lat="44.3604" lon="4.13513">
        <ele>405.33</ele>
        <time>2022-03-17T12:50:44Z</time>
      </trkpt>
      <trkpt lat="44.36036" lon="4.13516">
        <ele>405.33</ele>
        <time>2022-03-17T12:50:49Z</time>
      </trkpt>
      <trkpt lat="44.36029" lon="4.13525">
        <ele>405.33</ele>
        <time>2022-03-17T12:51:01Z</time>
      </trkpt>
      <trkpt lat="44.36028" lon="4.13527">
        <ele>405.33</ele>
        <time>2022-03-17T12:51:03Z</time>
      </trkpt>
      <trkpt lat="44.36021" lon="4.13538">
        <ele>405.33</ele>
        <time>2022-03-17T12:51:16Z</time>
      </trkpt>
      <trkpt lat="44.36018" lon="4.13548">
        <ele>405.81</ele>
        <time>2022-03-17T12:51:27Z</time>
      </trkpt>
      <trkpt lat="44.36014" lon="4.13564">
        <ele>405.33</ele>
        <time>2022-03-17T12:51:41Z</time>
      </trkpt>
      <trkpt lat="44.36013" lon="4.13567">
        <ele>405.33</ele>
        <time>2022-03-17T12:51:43Z</time>
      </trkpt>
      <trkpt lat="44.3601" lon="4.13582">
        <ele>405.33</ele>
        <time>2022-03-17T12:51:57Z</time>
      </trkpt>
      <trkpt lat="44.3601" lon="4.13588">
        <ele>405.33</ele>
        <time>2022-03-17T12:52:02Z</time>
      </trkpt>
      <trkpt lat="44.36007" lon="4.13607">
        <ele>404.85</ele>
        <time>2022-03-17T12:52:19Z</time>
      </trkpt>
      <trkpt lat="44.36006" lon="4.1361">
        <ele>404.85</ele>
        <time>2022-03-17T12:52:21Z</time>
      </trkpt>
      <trkpt lat="44.36007" lon="4.13614">
        <ele>404.85</ele>
        <time>2022-03-17T12:52:24Z</time>
      </trkpt>
      <trkpt lat="44.36003" lon="4.13632">
        <ele>404.37</ele>
        <time>2022-03-17T12:52:40Z</time>
      </trkpt>
      <trkpt lat="44.35997" lon="4.13652">
        <ele>404.37</ele>
        <time>2022-03-17T12:52:55Z</time>
      </trkpt>
      <trkpt lat="44.35993" lon="4.13666">
        <ele>404.85</ele>
        <time>2022-03-17T12:53:06Z</time>
      </trkpt>
      <trkpt lat="44.35992" lon="4.1367">
        <ele>404.37</ele>
        <time>2022-03-17T12:53:09Z</time>
      </trkpt>
      <trkpt lat="44.35985" lon="4.13689">
        <ele>404.85</ele>
        <time>2022-03-17T12:53:25Z</time>
      </trkpt>
      <trkpt lat="44.35979" lon="4.13705">
        <ele>404.37</ele>
        <time>2022-03-17T12:53:39Z</time>
      </trkpt>
      <trkpt lat="44.35977" lon="4.13708">
        <ele>404.37</ele>
        <time>2022-03-17T12:53:43Z</time>
      </trkpt>
      <trkpt lat="44.35974" lon="4.13711">
        <ele>403.89</ele>
        <time>2022-03-17T12:53:46Z</time>
      </trkpt>
      <trkpt lat="44.35963" lon="4.13721">
        <ele>403.41</ele>
        <time>2022-03-17T12:53:58Z</time>
      </trkpt>
      <trkpt lat="44.35956" lon="4.13726">
        <ele>402.45</ele>
        <time>2022-03-17T12:54:11Z</time>
      </trkpt>
      <trkpt lat="44.35947" lon="4.13729">
        <ele>401.49</ele>
        <time>2022-03-17T12:54:23Z</time>
      </trkpt>
      <trkpt lat="44.35941" lon="4.13727">
        <ele>401.49</ele>
        <time>2022-03-17T12:54:29Z</time>
      </trkpt>
      <trkpt lat="44.35933" lon="4.13724">
        <ele>401.01</ele>
        <time>2022-03-17T12:54:37Z</time>
      </trkpt>
      <trkpt lat="44.35926" lon="4.13717">
        <ele>401.01</ele>
        <time>2022-03-17T12:54:48Z</time>
      </trkpt>
      <trkpt lat="44.35918" lon="4.13704">
        <ele>400.53</ele>
        <time>2022-03-17T12:55:01Z</time>
      </trkpt>
      <trkpt lat="44.35914" lon="4.13701">
        <ele>400.53</ele>
        <time>2022-03-17T12:55:12Z</time>
      </trkpt>
      <trkpt lat="44.35914" lon="4.137">
        <ele>401.01</ele>
        <time>2022-03-17T12:55:34Z</time>
      </trkpt>
      <trkpt lat="44.35914" lon="4.137">
        <ele>401.01</ele>
        <time>2022-03-17T12:56:01Z</time>
      </trkpt>
      <trkpt lat="44.35914" lon="4.137">
        <ele>400.53</ele>
        <time>2022-03-17T12:56:17Z</time>
      </trkpt>
      <trkpt lat="44.35913" lon="4.13699">
        <ele>401.01</ele>
        <time>2022-03-17T12:56:32Z</time>
      </trkpt>
      <trkpt lat="44.35911" lon="4.13695">
        <ele>401.01</ele>
        <time>2022-03-17T12:56:49Z</time>
      </trkpt>
      <trkpt lat="44.3591" lon="4.13695">
        <ele>401.01</ele>
        <time>2022-03-17T12:57:05Z</time>
      </trkpt>
      <trkpt lat="44.35909" lon="4.13693">
        <ele>401.01</ele>
        <time>2022-03-17T12:57:17Z</time>
      </trkpt>
      <trkpt lat="44.35908" lon="4.13694">
        <ele>401.01</ele>
        <time>2022-03-17T12:57:29Z</time>
      </trkpt>
      <trkpt lat="44.35909" lon="4.13695">
        <ele>401.01</ele>
        <time>2022-03-17T12:57:41Z</time>
      </trkpt>
      <trkpt lat="44.3591" lon="4.13695">
        <ele>401.01</ele>
        <time>2022-03-17T12:57:57Z</time>
      </trkpt>
      <trkpt lat="44.35909" lon="4.13695">
        <ele>401.01</ele>
        <time>2022-03-17T12:58:13Z</time>
      </trkpt>
      <trkpt lat="44.3591" lon="4.13693">
        <ele>401.01</ele>
        <time>2022-03-17T12:58:32Z</time>
      </trkpt>
      <trkpt lat="44.35908" lon="4.13686">
        <ele>401.01</ele>
        <time>2022-03-17T12:58:41Z</time>
      </trkpt>
      <trkpt lat="44.35905" lon="4.13676">
        <ele>401.01</ele>
        <time>2022-03-17T12:58:49Z</time>
      </trkpt>
      <trkpt lat="44.35904" lon="4.13674">
        <ele>401.01</ele>
        <time>2022-03-17T12:58:51Z</time>
      </trkpt>
      <trkpt lat="44.35901" lon="4.13666">
        <ele>400.53</ele>
        <time>2022-03-17T12:59:03Z</time>
      </trkpt>
      <trkpt lat="44.35899" lon="4.13662">
        <ele>400.53</ele>
        <time>2022-03-17T12:59:06Z</time>
      </trkpt>
      <trkpt lat="44.35896" lon="4.1366">
        <ele>400.53</ele>
        <time>2022-03-17T12:59:09Z</time>
      </trkpt>
      <trkpt lat="44.35892" lon="4.13656">
        <ele>400.53</ele>
        <time>2022-03-17T12:59:15Z</time>
      </trkpt>
      <trkpt lat="44.35878" lon="4.13653">
        <ele>400.53</ele>
        <time>2022-03-17T12:59:30Z</time>
      </trkpt>
      <trkpt lat="44.35875" lon="4.13653">
        <ele>400.53</ele>
        <time>2022-03-17T12:59:33Z</time>
      </trkpt>
      <trkpt lat="44.35866" lon="4.13658">
        <ele>399.57</ele>
        <time>2022-03-17T12:59:45Z</time>
      </trkpt>
      <trkpt lat="44.35863" lon="4.13659">
        <ele>399.57</ele>
        <time>2022-03-17T12:59:48Z</time>
      </trkpt>
      <trkpt lat="44.35853" lon="4.13658">
        <ele>399.08</ele>
        <time>2022-03-17T12:59:58Z</time>
      </trkpt>
      <trkpt lat="44.35846" lon="4.13656">
        <ele>399.08</ele>
        <time>2022-03-17T13:00:04Z</time>
      </trkpt>
      <trkpt lat="44.35841" lon="4.13653">
        <ele>399.08</ele>
        <time>2022-03-17T13:00:10Z</time>
      </trkpt>
      <trkpt lat="44.35839" lon="4.13653">
        <ele>399.08</ele>
        <time>2022-03-17T13:00:12Z</time>
      </trkpt>
      <trkpt lat="44.35828" lon="4.13649">
        <ele>399.08</ele>
        <time>2022-03-17T13:00:24Z</time>
      </trkpt>
      <trkpt lat="44.3582" lon="4.1365">
        <ele>399.08</ele>
        <time>2022-03-17T13:00:35Z</time>
      </trkpt>
      <trkpt lat="44.35816" lon="4.13651">
        <ele>399.08</ele>
        <time>2022-03-17T13:00:40Z</time>
      </trkpt>
      <trkpt lat="44.35811" lon="4.1365">
        <ele>399.08</ele>
        <time>2022-03-17T13:00:46Z</time>
      </trkpt>
      <trkpt lat="44.358" lon="4.13647">
        <ele>399.08</ele>
        <time>2022-03-17T13:01:00Z</time>
      </trkpt>
      <trkpt lat="44.35799" lon="4.13647">
        <ele>399.08</ele>
        <time>2022-03-17T13:01:02Z</time>
      </trkpt>
      <trkpt lat="44.35791" lon="4.13646">
        <ele>399.57</ele>
        <time>2022-03-17T13:01:13Z</time>
      </trkpt>
      <trkpt lat="44.35783" lon="4.13647">
        <ele>399.57</ele>
        <time>2022-03-17T13:01:23Z</time>
      </trkpt>
      <trkpt lat="44.35775" lon="4.13647">
        <ele>399.08</ele>
        <time>2022-03-17T13:01:32Z</time>
      </trkpt>
      <trkpt lat="44.35771" lon="4.13649">
        <ele>398.6</ele>
        <time>2022-03-17T13:01:41Z</time>
      </trkpt>
      <trkpt lat="44.35762" lon="4.1365">
        <ele>398.6</ele>
        <time>2022-03-17T13:01:55Z</time>
      </trkpt>
      <trkpt lat="44.35756" lon="4.13652">
        <ele>398.6</ele>
        <time>2022-03-17T13:02:02Z</time>
      </trkpt>
      <trkpt lat="44.35751" lon="4.13657">
        <ele>398.6</ele>
        <time>2022-03-17T13:02:07Z</time>
      </trkpt>
      <trkpt lat="44.35746" lon="4.13671">
        <ele>398.6</ele>
        <time>2022-03-17T13:02:21Z</time>
      </trkpt>
      <trkpt lat="44.35746" lon="4.1367">
        <ele>398.6</ele>
        <time>2022-03-17T13:02:25Z</time>
      </trkpt>
      <trkpt lat="44.35747" lon="4.13667">
        <ele>398.6</ele>
        <time>2022-03-17T13:02:39Z</time>
      </trkpt>
      <trkpt lat="44.35747" lon="4.13667">
        <ele>399.08</ele>
        <time>2022-03-17T13:02:47Z</time>
      </trkpt>
      <trkpt lat="44.35743" lon="4.13665">
        <ele>398.6</ele>
        <time>2022-03-17T13:02:58Z</time>
      </trkpt>
      <trkpt lat="44.35742" lon="4.13665">
        <ele>398.6</ele>
        <time>2022-03-17T13:02:59Z</time>
      </trkpt>
      <trkpt lat="44.35736" lon="4.13662">
        <ele>398.6</ele>
        <time>2022-03-17T13:03:10Z</time>
      </trkpt>
      <trkpt lat="44.3573" lon="4.1366">
        <ele>398.12</ele>
        <time>2022-03-17T13:03:21Z</time>
      </trkpt>
      <trkpt lat="44.35727" lon="4.1366">
        <ele>397.64</ele>
        <time>2022-03-17T13:03:26Z</time>
      </trkpt>
      <trkpt lat="44.35723" lon="4.13658">
        <ele>397.16</ele>
        <time>2022-03-17T13:03:31Z</time>
      </trkpt>
      <trkpt lat="44.35721" lon="4.13657">
        <ele>397.16</ele>
        <time>2022-03-17T13:03:33Z</time>
      </trkpt>
      <trkpt lat="44.35716" lon="4.13655">
        <ele>396.68</ele>
        <time>2022-03-17T13:03:38Z</time>
      </trkpt>
      <trkpt lat="44.35712" lon="4.13654">
        <ele>397.16</ele>
        <time>2022-03-17T13:03:42Z</time>
      </trkpt>
      <trkpt lat="44.3571" lon="4.13653">
        <ele>397.16</ele>
        <time>2022-03-17T13:03:44Z</time>
      </trkpt>
      <trkpt lat="44.35702" lon="4.13651">
        <ele>396.68</ele>
        <time>2022-03-17T13:03:54Z</time>
      </trkpt>
      <trkpt lat="44.35693" lon="4.13646">
        <ele>396.68</ele>
        <time>2022-03-17T13:04:06Z</time>
      </trkpt>
      <trkpt lat="44.35685" lon="4.13645">
        <ele>396.2</ele>
        <time>2022-03-17T13:04:18Z</time>
      </trkpt>
      <trkpt lat="44.35678" lon="4.13643">
        <ele>395.72</ele>
        <time>2022-03-17T13:04:27Z</time>
      </trkpt>
      <trkpt lat="44.35672" lon="4.13644">
        <ele>395.24</ele>
        <time>2022-03-17T13:04:33Z</time>
      </trkpt>
      <trkpt lat="44.35667" lon="4.13643">
        <ele>395.24</ele>
        <time>2022-03-17T13:04:38Z</time>
      </trkpt>
      <trkpt lat="44.35656" lon="4.13643">
        <ele>394.76</ele>
        <time>2022-03-17T13:04:50Z</time>
      </trkpt>
      <trkpt lat="44.35653" lon="4.13642">
        <ele>394.76</ele>
        <time>2022-03-17T13:05:03Z</time>
      </trkpt>
      <trkpt lat="44.35651" lon="4.13641">
        <ele>395.24</ele>
        <time>2022-03-17T13:05:16Z</time>
      </trkpt>
      <trkpt lat="44.35648" lon="4.1364">
        <ele>395.24</ele>
        <time>2022-03-17T13:05:22Z</time>
      </trkpt>
      <trkpt lat="44.35639" lon="4.1364">
        <ele>395.24</ele>
        <time>2022-03-17T13:05:34Z</time>
      </trkpt>
      <trkpt lat="44.35635" lon="4.13639">
        <ele>395.24</ele>
        <time>2022-03-17T13:05:44Z</time>
      </trkpt>
      <trkpt lat="44.35632" lon="4.13639">
        <ele>395.24</ele>
        <time>2022-03-17T13:06:04Z</time>
      </trkpt>
      <trkpt lat="44.35624" lon="4.13636">
        <ele>395.24</ele>
        <time>2022-03-17T13:06:14Z</time>
      </trkpt>
      <trkpt lat="44.35616" lon="4.13636">
        <ele>395.72</ele>
        <time>2022-03-17T13:06:25Z</time>
      </trkpt>
      <trkpt lat="44.35611" lon="4.13636">
        <ele>395.72</ele>
        <time>2022-03-17T13:06:29Z</time>
      </trkpt>
      <trkpt lat="44.35606" lon="4.13636">
        <ele>396.2</ele>
        <time>2022-03-17T13:06:36Z</time>
      </trkpt>
      <trkpt lat="44.35601" lon="4.13638">
        <ele>396.2</ele>
        <time>2022-03-17T13:06:44Z</time>
      </trkpt>
      <trkpt lat="44.35591" lon="4.13637">
        <ele>396.2</ele>
        <time>2022-03-17T13:06:55Z</time>
      </trkpt>
      <trkpt lat="44.35588" lon="4.13636">
        <ele>396.2</ele>
        <time>2022-03-17T13:06:59Z</time>
      </trkpt>
      <trkpt lat="44.35582" lon="4.13635">
        <ele>396.68</ele>
        <time>2022-03-17T13:07:06Z</time>
      </trkpt>
      <trkpt lat="44.35578" lon="4.13632">
        <ele>396.68</ele>
        <time>2022-03-17T13:07:18Z</time>
      </trkpt>
      <trkpt lat="44.35576" lon="4.13632">
        <ele>396.68</ele>
        <time>2022-03-17T13:07:31Z</time>
      </trkpt>
      <trkpt lat="44.3557" lon="4.1363">
        <ele>397.16</ele>
        <time>2022-03-17T13:07:40Z</time>
      </trkpt>
      <trkpt lat="44.35562" lon="4.13628">
        <ele>397.64</ele>
        <time>2022-03-17T13:07:50Z</time>
      </trkpt>
      <trkpt lat="44.35558" lon="4.13623">
        <ele>397.64</ele>
        <time>2022-03-17T13:08:01Z</time>
      </trkpt>
      <trkpt lat="44.35554" lon="4.13619">
        <ele>398.12</ele>
        <time>2022-03-17T13:08:12Z</time>
      </trkpt>
      <trkpt lat="44.3555" lon="4.13614">
        <ele>398.6</ele>
        <time>2022-03-17T13:08:24Z</time>
      </trkpt>
      <trkpt lat="44.35544" lon="4.13609">
        <ele>398.12</ele>
        <time>2022-03-17T13:08:32Z</time>
      </trkpt>
      <trkpt lat="44.35536" lon="4.13601">
        <ele>398.6</ele>
        <time>2022-03-17T13:08:42Z</time>
      </trkpt>
      <trkpt lat="44.3553" lon="4.13595">
        <ele>399.08</ele>
        <time>2022-03-17T13:08:53Z</time>
      </trkpt>
      <trkpt lat="44.35526" lon="4.13589">
        <ele>399.08</ele>
        <time>2022-03-17T13:09:04Z</time>
      </trkpt>
      <trkpt lat="44.35522" lon="4.13585">
        <ele>399.57</ele>
        <time>2022-03-17T13:09:14Z</time>
      </trkpt>
      <trkpt lat="44.3552" lon="4.13579">
        <ele>400.05</ele>
        <time>2022-03-17T13:09:22Z</time>
      </trkpt>
      <trkpt lat="44.35516" lon="4.13572">
        <ele>400.53</ele>
        <time>2022-03-17T13:09:32Z</time>
      </trkpt>
      <trkpt lat="44.35506" lon="4.13567">
        <ele>401.01</ele>
        <time>2022-03-17T13:09:41Z</time>
      </trkpt>
      <trkpt lat="44.35503" lon="4.13566">
        <ele>401.01</ele>
        <time>2022-03-17T13:09:43Z</time>
      </trkpt>
      <trkpt lat="44.35498" lon="4.13564">
        <ele>401.49</ele>
        <time>2022-03-17T13:09:48Z</time>
      </trkpt>
      <trkpt lat="44.35492" lon="4.13558">
        <ele>402.45</ele>
        <time>2022-03-17T13:09:55Z</time>
      </trkpt>
      <trkpt lat="44.35486" lon="4.13553">
        <ele>402.93</ele>
        <time>2022-03-17T13:10:06Z</time>
      </trkpt>
      <trkpt lat="44.35485" lon="4.13553">
        <ele>402.93</ele>
        <time>2022-03-17T13:10:11Z</time>
      </trkpt>
      <trkpt lat="44.35477" lon="4.13548">
        <ele>403.41</ele>
        <time>2022-03-17T13:10:20Z</time>
      </trkpt>
      <trkpt lat="44.35472" lon="4.13546">
        <ele>403.89</ele>
        <time>2022-03-17T13:10:24Z</time>
      </trkpt>
      <trkpt lat="44.35462" lon="4.13541">
        <ele>404.37</ele>
        <time>2022-03-17T13:10:33Z</time>
      </trkpt>
      <trkpt lat="44.35457" lon="4.1354">
        <ele>404.37</ele>
        <time>2022-03-17T13:10:38Z</time>
      </trkpt>
      <trkpt lat="44.35453" lon="4.13538">
        <ele>404.85</ele>
        <time>2022-03-17T13:10:43Z</time>
      </trkpt>
      <trkpt lat="44.35446" lon="4.13535">
        <ele>404.85</ele>
        <time>2022-03-17T13:10:49Z</time>
      </trkpt>
      <trkpt lat="44.35443" lon="4.13535">
        <ele>404.85</ele>
        <time>2022-03-17T13:10:51Z</time>
      </trkpt>
      <trkpt lat="44.35437" lon="4.13532">
        <ele>405.33</ele>
        <time>2022-03-17T13:11:01Z</time>
      </trkpt>
      <trkpt lat="44.35435" lon="4.13532">
        <ele>405.33</ele>
        <time>2022-03-17T13:11:03Z</time>
      </trkpt>
      <trkpt lat="44.35423" lon="4.13527">
        <ele>405.81</ele>
        <time>2022-03-17T13:11:15Z</time>
      </trkpt>
      <trkpt lat="44.35418" lon="4.13525">
        <ele>406.29</ele>
        <time>2022-03-17T13:11:25Z</time>
      </trkpt>
      <trkpt lat="44.35413" lon="4.13525">
        <ele>406.29</ele>
        <time>2022-03-17T13:11:35Z</time>
      </trkpt>
      <trkpt lat="44.35404" lon="4.13523">
        <ele>406.77</ele>
        <time>2022-03-17T13:11:46Z</time>
      </trkpt>
      <trkpt lat="44.35402" lon="4.13522">
        <ele>406.77</ele>
        <time>2022-03-17T13:11:51Z</time>
      </trkpt>
      <trkpt lat="44.35396" lon="4.13522">
        <ele>406.77</ele>
        <time>2022-03-17T13:12:03Z</time>
      </trkpt>
      <trkpt lat="44.35391" lon="4.13523">
        <ele>407.26</ele>
        <time>2022-03-17T13:12:11Z</time>
      </trkpt>
      <trkpt lat="44.35379" lon="4.13523">
        <ele>406.77</ele>
        <time>2022-03-17T13:12:22Z</time>
      </trkpt>
      <trkpt lat="44.35369" lon="4.13522">
        <ele>406.77</ele>
        <time>2022-03-17T13:12:33Z</time>
      </trkpt>
      <trkpt lat="44.35361" lon="4.13521">
        <ele>406.77</ele>
        <time>2022-03-17T13:12:41Z</time>
      </trkpt>
      <trkpt lat="44.35357" lon="4.1352">
        <ele>406.29</ele>
        <time>2022-03-17T13:12:50Z</time>
      </trkpt>
      <trkpt lat="44.35345" lon="4.13519">
        <ele>406.29</ele>
        <time>2022-03-17T13:13:02Z</time>
      </trkpt>
      <trkpt lat="44.3534" lon="4.13517">
        <ele>405.81</ele>
        <time>2022-03-17T13:13:12Z</time>
      </trkpt>
      <trkpt lat="44.35337" lon="4.13516">
        <ele>405.81</ele>
        <time>2022-03-17T13:13:23Z</time>
      </trkpt>
      <trkpt lat="44.35333" lon="4.13513">
        <ele>405.33</ele>
        <time>2022-03-17T13:13:35Z</time>
      </trkpt>
      <trkpt lat="44.35329" lon="4.13513">
        <ele>405.33</ele>
        <time>2022-03-17T13:13:44Z</time>
      </trkpt>
      <trkpt lat="44.35318" lon="4.1351">
        <ele>404.85</ele>
        <time>2022-03-17T13:13:55Z</time>
      </trkpt>
      <trkpt lat="44.35303" lon="4.13506">
        <ele>404.37</ele>
        <time>2022-03-17T13:14:03Z</time>
      </trkpt>
      <trkpt lat="44.35297" lon="4.13505">
        <ele>404.37</ele>
        <time>2022-03-17T13:14:13Z</time>
      </trkpt>
      <trkpt lat="44.35287" lon="4.13502">
        <ele>403.41</ele>
        <time>2022-03-17T13:14:23Z</time>
      </trkpt>
      <trkpt lat="44.35279" lon="4.13498">
        <ele>403.89</ele>
        <time>2022-03-17T13:14:31Z</time>
      </trkpt>
      <trkpt lat="44.35268" lon="4.13494">
        <ele>402.93</ele>
        <time>2022-03-17T13:14:41Z</time>
      </trkpt>
      <trkpt lat="44.35265" lon="4.13491">
        <ele>402.93</ele>
        <time>2022-03-17T13:14:51Z</time>
      </trkpt>
      <trkpt lat="44.35259" lon="4.13489">
        <ele>402.45</ele>
        <time>2022-03-17T13:15:00Z</time>
      </trkpt>
      <trkpt lat="44.35256" lon="4.13487">
        <ele>401.97</ele>
        <time>2022-03-17T13:15:10Z</time>
      </trkpt>
      <trkpt lat="44.35253" lon="4.13486">
        <ele>401.49</ele>
        <time>2022-03-17T13:15:19Z</time>
      </trkpt>
      <trkpt lat="44.3525" lon="4.13486">
        <ele>401.01</ele>
        <time>2022-03-17T13:15:32Z</time>
      </trkpt>
      <trkpt lat="44.35241" lon="4.13483">
        <ele>401.01</ele>
        <time>2022-03-17T13:15:42Z</time>
      </trkpt>
      <trkpt lat="44.35234" lon="4.13482">
        <ele>401.01</ele>
        <time>2022-03-17T13:15:52Z</time>
      </trkpt>
      <trkpt lat="44.35229" lon="4.13482">
        <ele>400.05</ele>
        <time>2022-03-17T13:16:04Z</time>
      </trkpt>
      <trkpt lat="44.35222" lon="4.13481">
        <ele>399.57</ele>
        <time>2022-03-17T13:16:14Z</time>
      </trkpt>
      <trkpt lat="44.35218" lon="4.13481">
        <ele>399.57</ele>
        <time>2022-03-17T13:16:17Z</time>
      </trkpt>
      <trkpt lat="44.35204" lon="4.13482">
        <ele>399.08</ele>
        <time>2022-03-17T13:16:29Z</time>
      </trkpt>
      <trkpt lat="44.35197" lon="4.13483">
        <ele>398.6</ele>
        <time>2022-03-17T13:16:35Z</time>
      </trkpt>
      <trkpt lat="44.35184" lon="4.13484">
        <ele>398.12</ele>
        <time>2022-03-17T13:16:47Z</time>
      </trkpt>
      <trkpt lat="44.35177" lon="4.13484">
        <ele>398.12</ele>
        <time>2022-03-17T13:16:59Z</time>
      </trkpt>
      <trkpt lat="44.35172" lon="4.13486">
        <ele>397.64</ele>
        <time>2022-03-17T13:17:11Z</time>
      </trkpt>
      <trkpt lat="44.3517" lon="4.13487">
        <ele>397.64</ele>
        <time>2022-03-17T13:17:23Z</time>
      </trkpt>
      <trkpt lat="44.35167" lon="4.13488">
        <ele>397.16</ele>
        <time>2022-03-17T13:17:35Z</time>
      </trkpt>
      <trkpt lat="44.35163" lon="4.1349">
        <ele>397.64</ele>
        <time>2022-03-17T13:17:48Z</time>
      </trkpt>
      <trkpt lat="44.3516" lon="4.13491">
        <ele>397.64</ele>
        <time>2022-03-17T13:18:06Z</time>
      </trkpt>
      <trkpt lat="44.35154" lon="4.13493">
        <ele>397.16</ele>
        <time>2022-03-17T13:18:18Z</time>
      </trkpt>
      <trkpt lat="44.35143" lon="4.13496">
        <ele>397.16</ele>
        <time>2022-03-17T13:18:30Z</time>
      </trkpt>
      <trkpt lat="44.35127" lon="4.13497">
        <ele>396.68</ele>
        <time>2022-03-17T13:18:43Z</time>
      </trkpt>
      <trkpt lat="44.35125" lon="4.13498">
        <ele>395.72</ele>
        <time>2022-03-17T13:18:56Z</time>
      </trkpt>
      <trkpt lat="44.35123" lon="4.13499">
        <ele>395.24</ele>
        <time>2022-03-17T13:19:08Z</time>
      </trkpt>
      <trkpt lat="44.35116" lon="4.13499">
        <ele>394.76</ele>
        <time>2022-03-17T13:19:18Z</time>
      </trkpt>
      <trkpt lat="44.35113" lon="4.13498">
        <ele>394.28</ele>
        <time>2022-03-17T13:19:26Z</time>
      </trkpt>
      <trkpt lat="44.35102" lon="4.13497">
        <ele>393.32</ele>
        <time>2022-03-17T13:19:37Z</time>
      </trkpt>
      <trkpt lat="44.35096" lon="4.13497">
        <ele>392.84</ele>
        <time>2022-03-17T13:19:48Z</time>
      </trkpt>
      <trkpt lat="44.35089" lon="4.13496">
        <ele>392.36</ele>
        <time>2022-03-17T13:20:00Z</time>
      </trkpt>
      <trkpt lat="44.35078" lon="4.13496">
        <ele>391.87</ele>
        <time>2022-03-17T13:20:11Z</time>
      </trkpt>
      <trkpt lat="44.35076" lon="4.13497">
        <ele>391.87</ele>
        <time>2022-03-17T13:20:12Z</time>
      </trkpt>
      <trkpt lat="44.35067" lon="4.13499">
        <ele>391.39</ele>
        <time>2022-03-17T13:20:24Z</time>
      </trkpt>
      <trkpt lat="44.35049" lon="4.13498">
        <ele>391.39</ele>
        <time>2022-03-17T13:20:36Z</time>
      </trkpt>
      <trkpt lat="44.35036" lon="4.13498">
        <ele>390.91</ele>
        <time>2022-03-17T13:20:48Z</time>
      </trkpt>
      <trkpt lat="44.3503" lon="4.13502">
        <ele>390.91</ele>
        <time>2022-03-17T13:20:59Z</time>
      </trkpt>
      <trkpt lat="44.35024" lon="4.13502">
        <ele>390.91</ele>
        <time>2022-03-17T13:21:12Z</time>
      </trkpt>
      <trkpt lat="44.35022" lon="4.13501">
        <ele>390.91</ele>
        <time>2022-03-17T13:21:23Z</time>
      </trkpt>
      <trkpt lat="44.35019" lon="4.135">
        <ele>390.43</ele>
        <time>2022-03-17T13:21:35Z</time>
      </trkpt>
      <trkpt lat="44.35018" lon="4.13496">
        <ele>390.43</ele>
        <time>2022-03-17T13:21:47Z</time>
      </trkpt>
      <trkpt lat="44.35015" lon="4.13486">
        <ele>390.43</ele>
        <time>2022-03-17T13:22:02Z</time>
      </trkpt>
      <trkpt lat="44.34987" lon="4.13475">
        <ele>390.43</ele>
        <time>2022-03-17T13:22:16Z</time>
      </trkpt>
      <trkpt lat="44.34969" lon="4.13464">
        <ele>390.91</ele>
        <time>2022-03-17T13:22:29Z</time>
      </trkpt>
      <trkpt lat="44.34962" lon="4.13457">
        <ele>390.91</ele>
        <time>2022-03-17T13:22:42Z</time>
      </trkpt>
      <trkpt lat="44.34953" lon="4.1345">
        <ele>391.39</ele>
        <time>2022-03-17T13:22:54Z</time>
      </trkpt>
      <trkpt lat="44.3495" lon="4.13448">
        <ele>391.39</ele>
        <time>2022-03-17T13:22:59Z</time>
      </trkpt>
      <trkpt lat="44.3494" lon="4.1344">
        <ele>391.39</ele>
        <time>2022-03-17T13:23:13Z</time>
      </trkpt>
      <trkpt lat="44.3493" lon="4.13434">
        <ele>391.39</ele>
        <time>2022-03-17T13:23:26Z</time>
      </trkpt>
      <trkpt lat="44.34926" lon="4.1343">
        <ele>390.91</ele>
        <time>2022-03-17T13:23:37Z</time>
      </trkpt>
      <trkpt lat="44.34927" lon="4.13427">
        <ele>391.39</ele>
        <time>2022-03-17T13:23:43Z</time>
      </trkpt>
      <trkpt lat="44.34927" lon="4.13415">
        <ele>391.39</ele>
        <time>2022-03-17T13:23:56Z</time>
      </trkpt>
      <trkpt lat="44.34923" lon="4.13404">
        <ele>392.36</ele>
        <time>2022-03-17T13:24:10Z</time>
      </trkpt>
      <trkpt lat="44.3492" lon="4.13397">
        <ele>392.36</ele>
        <time>2022-03-17T13:24:22Z</time>
      </trkpt>
      <trkpt lat="44.34915" lon="4.13389">
        <ele>392.84</ele>
        <time>2022-03-17T13:24:34Z</time>
      </trkpt>
      <trkpt lat="44.34912" lon="4.1338">
        <ele>393.32</ele>
        <time>2022-03-17T13:24:45Z</time>
      </trkpt>
      <trkpt lat="44.34907" lon="4.1337">
        <ele>393.8</ele>
        <time>2022-03-17T13:24:55Z</time>
      </trkpt>
      <trkpt lat="44.34902" lon="4.13361">
        <ele>394.28</ele>
        <time>2022-03-17T13:25:06Z</time>
      </trkpt>
      <trkpt lat="44.349" lon="4.13359">
        <ele>394.28</ele>
        <time>2022-03-17T13:25:09Z</time>
      </trkpt>
      <trkpt lat="44.34894" lon="4.13348">
        <ele>394.76</ele>
        <time>2022-03-17T13:25:21Z</time>
      </trkpt>
      <trkpt lat="44.34892" lon="4.13347">
        <ele>394.28</ele>
        <time>2022-03-17T13:25:36Z</time>
      </trkpt>
      <trkpt lat="44.3489" lon="4.13346">
        <ele>394.76</ele>
        <time>2022-03-17T13:25:50Z</time>
      </trkpt>
      <trkpt lat="44.34885" lon="4.13337">
        <ele>395.24</ele>
        <time>2022-03-17T13:26:02Z</time>
      </trkpt>
      <trkpt lat="44.34881" lon="4.13327">
        <ele>396.2</ele>
        <time>2022-03-17T13:26:15Z</time>
      </trkpt>
      <trkpt lat="44.34878" lon="4.13318">
        <ele>396.2</ele>
        <time>2022-03-17T13:26:27Z</time>
      </trkpt>
      <trkpt lat="44.34875" lon="4.13312">
        <ele>396.68</ele>
        <time>2022-03-17T13:26:38Z</time>
      </trkpt>
      <trkpt lat="44.34868" lon="4.13305">
        <ele>397.16</ele>
        <time>2022-03-17T13:26:50Z</time>
      </trkpt>
      <trkpt lat="44.34866" lon="4.13304">
        <ele>397.64</ele>
        <time>2022-03-17T13:26:53Z</time>
      </trkpt>
      <trkpt lat="44.34854" lon="4.13301">
        <ele>396.68</ele>
        <time>2022-03-17T13:27:05Z</time>
      </trkpt>
      <trkpt lat="44.34849" lon="4.13298">
        <ele>396.68</ele>
        <time>2022-03-17T13:27:16Z</time>
      </trkpt>
      <trkpt lat="44.34844" lon="4.13296">
        <ele>396.68</ele>
        <time>2022-03-17T13:27:29Z</time>
      </trkpt>
      <trkpt lat="44.34843" lon="4.13292">
        <ele>396.2</ele>
        <time>2022-03-17T13:27:39Z</time>
      </trkpt>
      <trkpt lat="44.34831" lon="4.13286">
        <ele>396.2</ele>
        <time>2022-03-17T13:27:51Z</time>
      </trkpt>
      <trkpt lat="44.34825" lon="4.13284">
        <ele>396.2</ele>
        <time>2022-03-17T13:27:57Z</time>
      </trkpt>
      <trkpt lat="44.34813" lon="4.13278">
        <ele>395.72</ele>
        <time>2022-03-17T13:28:09Z</time>
      </trkpt>
      <trkpt lat="44.34803" lon="4.1327">
        <ele>395.72</ele>
        <time>2022-03-17T13:28:23Z</time>
      </trkpt>
      <trkpt lat="44.34795" lon="4.13262">
        <ele>395.24</ele>
        <time>2022-03-17T13:28:35Z</time>
      </trkpt>
      <trkpt lat="44.34789" lon="4.13255">
        <ele>394.28</ele>
        <time>2022-03-17T13:28:47Z</time>
      </trkpt>
      <trkpt lat="44.34782" lon="4.13249">
        <ele>394.76</ele>
        <time>2022-03-17T13:29:00Z</time>
      </trkpt>
      <trkpt lat="44.34773" lon="4.13246">
        <ele>394.76</ele>
        <time>2022-03-17T13:29:10Z</time>
      </trkpt>
      <trkpt lat="44.34764" lon="4.13243">
        <ele>394.76</ele>
        <time>2022-03-17T13:29:22Z</time>
      </trkpt>
      <trkpt lat="44.34758" lon="4.13239">
        <ele>394.76</ele>
        <time>2022-03-17T13:29:29Z</time>
      </trkpt>
      <trkpt lat="44.34746" lon="4.13233">
        <ele>395.24</ele>
        <time>2022-03-17T13:29:41Z</time>
      </trkpt>
      <trkpt lat="44.34745" lon="4.13232">
        <ele>395.24</ele>
        <time>2022-03-17T13:29:43Z</time>
      </trkpt>
      <trkpt lat="44.34742" lon="4.13231">
        <ele>395.24</ele>
        <time>2022-03-17T13:29:45Z</time>
      </trkpt>
      <trkpt lat="44.34735" lon="4.13227">
        <ele>395.24</ele>
        <time>2022-03-17T13:29:55Z</time>
      </trkpt>
      <trkpt lat="44.34728" lon="4.13223">
        <ele>395.24</ele>
        <time>2022-03-17T13:30:08Z</time>
      </trkpt>
      <trkpt lat="44.34722" lon="4.13221">
        <ele>394.76</ele>
        <time>2022-03-17T13:30:25Z</time>
      </trkpt>
      <trkpt lat="44.34717" lon="4.13218">
        <ele>394.28</ele>
        <time>2022-03-17T13:30:30Z</time>
      </trkpt>
      <trkpt lat="44.34703" lon="4.13211">
        <ele>393.8</ele>
        <time>2022-03-17T13:30:42Z</time>
      </trkpt>
      <trkpt lat="44.34702" lon="4.1321">
        <ele>393.8</ele>
        <time>2022-03-17T13:30:43Z</time>
      </trkpt>
      <trkpt lat="44.34693" lon="4.13209">
        <ele>393.32</ele>
        <time>2022-03-17T13:30:52Z</time>
      </trkpt>
      <trkpt lat="44.34689" lon="4.1321">
        <ele>393.32</ele>
        <time>2022-03-17T13:30:57Z</time>
      </trkpt>
      <trkpt lat="44.34683" lon="4.13205">
        <ele>392.84</ele>
        <time>2022-03-17T13:31:07Z</time>
      </trkpt>
      <trkpt lat="44.34677" lon="4.13205">
        <ele>392.36</ele>
        <time>2022-03-17T13:31:19Z</time>
      </trkpt>
      <trkpt lat="44.34668" lon="4.13201">
        <ele>391.87</ele>
        <time>2022-03-17T13:31:31Z</time>
      </trkpt>
      <trkpt lat="44.34664" lon="4.13196">
        <ele>391.39</ele>
        <time>2022-03-17T13:31:43Z</time>
      </trkpt>
      <trkpt lat="44.34659" lon="4.13192">
        <ele>390.91</ele>
        <time>2022-03-17T13:31:48Z</time>
      </trkpt>
      <trkpt lat="44.34649" lon="4.13183">
        <ele>389.95</ele>
        <time>2022-03-17T13:32:00Z</time>
      </trkpt>
      <trkpt lat="44.34642" lon="4.13179">
        <ele>389.47</ele>
        <time>2022-03-17T13:32:08Z</time>
      </trkpt>
      <trkpt lat="44.34636" lon="4.1317">
        <ele>388.99</ele>
        <time>2022-03-17T13:32:20Z</time>
      </trkpt>
      <trkpt lat="44.34625" lon="4.13166">
        <ele>388.51</ele>
        <time>2022-03-17T13:32:30Z</time>
      </trkpt>
      <trkpt lat="44.34618" lon="4.1316">
        <ele>387.55</ele>
        <time>2022-03-17T13:32:40Z</time>
      </trkpt>
      <trkpt lat="44.34609" lon="4.13151">
        <ele>387.07</ele>
        <time>2022-03-17T13:32:52Z</time>
      </trkpt>
      <trkpt lat="44.34605" lon="4.13142">
        <ele>386.11</ele>
        <time>2022-03-17T13:33:01Z</time>
      </trkpt>
      <trkpt lat="44.34604" lon="4.13142">
        <ele>386.11</ele>
        <time>2022-03-17T13:33:02Z</time>
      </trkpt>
      <trkpt lat="44.34594" lon="4.13136">
        <ele>385.63</ele>
        <time>2022-03-17T13:33:12Z</time>
      </trkpt>
      <trkpt lat="44.34589" lon="4.13133">
        <ele>384.66</ele>
        <time>2022-03-17T13:33:21Z</time>
      </trkpt>
      <trkpt lat="44.34582" lon="4.13124">
        <ele>383.7</ele>
        <time>2022-03-17T13:33:34Z</time>
      </trkpt>
      <trkpt lat="44.34578" lon="4.1312">
        <ele>383.7</ele>
        <time>2022-03-17T13:33:41Z</time>
      </trkpt>
      <trkpt lat="44.34574" lon="4.13116">
        <ele>382.74</ele>
        <time>2022-03-17T13:33:46Z</time>
      </trkpt>
      <trkpt lat="44.34566" lon="4.13105">
        <ele>382.74</ele>
        <time>2022-03-17T13:33:59Z</time>
      </trkpt>
      <trkpt lat="44.34564" lon="4.13103">
        <ele>382.26</ele>
        <time>2022-03-17T13:34:18Z</time>
      </trkpt>
      <trkpt lat="44.3456" lon="4.13101">
        <ele>381.78</ele>
        <time>2022-03-17T13:34:23Z</time>
      </trkpt>
      <trkpt lat="44.34552" lon="4.13096">
        <ele>380.82</ele>
        <time>2022-03-17T13:34:36Z</time>
      </trkpt>
      <trkpt lat="44.34551" lon="4.13094">
        <ele>380.34</ele>
        <time>2022-03-17T13:34:38Z</time>
      </trkpt>
      <trkpt lat="44.34542" lon="4.13088">
        <ele>379.38</ele>
        <time>2022-03-17T13:34:49Z</time>
      </trkpt>
      <trkpt lat="44.34536" lon="4.13082">
        <ele>378.9</ele>
        <time>2022-03-17T13:34:57Z</time>
      </trkpt>
      <trkpt lat="44.34522" lon="4.13075">
        <ele>377.94</ele>
        <time>2022-03-17T13:35:08Z</time>
      </trkpt>
      <trkpt lat="44.34517" lon="4.1307">
        <ele>377.45</ele>
        <time>2022-03-17T13:35:23Z</time>
      </trkpt>
      <trkpt lat="44.34515" lon="4.13071">
        <ele>377.45</ele>
        <time>2022-03-17T13:35:41Z</time>
      </trkpt>
      <trkpt lat="44.34512" lon="4.13071">
        <ele>377.94</ele>
        <time>2022-03-17T13:35:58Z</time>
      </trkpt>
      <trkpt lat="44.34508" lon="4.1307">
        <ele>377.94</ele>
        <time>2022-03-17T13:36:14Z</time>
      </trkpt>
      <trkpt lat="44.34507" lon="4.1307">
        <ele>377.94</ele>
        <time>2022-03-17T13:36:28Z</time>
      </trkpt>
      <trkpt lat="44.34508" lon="4.13069">
        <ele>377.94</ele>
        <time>2022-03-17T13:36:45Z</time>
      </trkpt>
      <trkpt lat="44.34508" lon="4.13068">
        <ele>377.94</ele>
        <time>2022-03-17T13:37:03Z</time>
      </trkpt>
      <trkpt lat="44.34507" lon="4.13068">
        <ele>377.45</ele>
        <time>2022-03-17T13:37:15Z</time>
      </trkpt>
      <trkpt lat="44.34505" lon="4.13067">
        <ele>377.94</ele>
        <time>2022-03-17T13:37:29Z</time>
      </trkpt>
      <trkpt lat="44.34503" lon="4.13066">
        <ele>377.45</ele>
        <time>2022-03-17T13:37:47Z</time>
      </trkpt>
      <trkpt lat="44.34503" lon="4.13066">
        <ele>377.94</ele>
        <time>2022-03-17T13:38:03Z</time>
      </trkpt>
      <trkpt lat="44.34503" lon="4.13066">
        <ele>377.94</ele>
        <time>2022-03-17T13:38:19Z</time>
      </trkpt>
      <trkpt lat="44.34504" lon="4.13067">
        <ele>377.45</ele>
        <time>2022-03-17T13:38:42Z</time>
      </trkpt>
      <trkpt lat="44.34503" lon="4.13069">
        <ele>377.45</ele>
        <time>2022-03-17T13:39:05Z</time>
      </trkpt>
      <trkpt lat="44.34503" lon="4.13069">
        <ele>377.45</ele>
        <time>2022-03-17T13:39:20Z</time>
      </trkpt>
      <trkpt lat="44.34502" lon="4.13068">
        <ele>377.45</ele>
        <time>2022-03-17T13:39:37Z</time>
      </trkpt>
      <trkpt lat="44.34502" lon="4.13068">
        <ele>377.45</ele>
        <time>2022-03-17T13:39:54Z</time>
      </trkpt>
      <trkpt lat="44.34503" lon="4.13067">
        <ele>377.45</ele>
        <time>2022-03-17T13:40:20Z</time>
      </trkpt>
      <trkpt lat="44.34502" lon="4.13067">
        <ele>376.97</ele>
        <time>2022-03-17T13:40:40Z</time>
      </trkpt>
      <trkpt lat="44.34502" lon="4.13067">
        <ele>376.97</ele>
        <time>2022-03-17T13:40:57Z</time>
      </trkpt>
      <trkpt lat="44.34502" lon="4.13066">
        <ele>376.97</ele>
        <time>2022-03-17T13:41:09Z</time>
      </trkpt>
      <trkpt lat="44.34503" lon="4.13065">
        <ele>376.97</ele>
        <time>2022-03-17T13:41:26Z</time>
      </trkpt>
      <trkpt lat="44.34503" lon="4.13065">
        <ele>376.97</ele>
        <time>2022-03-17T13:41:45Z</time>
      </trkpt>
      <trkpt lat="44.34503" lon="4.13066">
        <ele>376.97</ele>
        <time>2022-03-17T13:41:59Z</time>
      </trkpt>
      <trkpt lat="44.34503" lon="4.13069">
        <ele>376.97</ele>
        <time>2022-03-17T13:42:19Z</time>
      </trkpt>
      <trkpt lat="44.34503" lon="4.13068">
        <ele>376.97</ele>
        <time>2022-03-17T13:42:42Z</time>
      </trkpt>
      <trkpt lat="44.34502" lon="4.13068">
        <ele>376.49</ele>
        <time>2022-03-17T13:43:01Z</time>
      </trkpt>
      <trkpt lat="44.34501" lon="4.13067">
        <ele>376.49</ele>
        <time>2022-03-17T13:43:19Z</time>
      </trkpt>
      <trkpt lat="44.34502" lon="4.13067">
        <ele>376.49</ele>
        <time>2022-03-17T13:43:36Z</time>
      </trkpt>
      <trkpt lat="44.34502" lon="4.13067">
        <ele>376.49</ele>
        <time>2022-03-17T13:43:58Z</time>
      </trkpt>
      <trkpt lat="44.34503" lon="4.13067">
        <ele>376.01</ele>
        <time>2022-03-17T13:44:15Z</time>
      </trkpt>
      <trkpt lat="44.34502" lon="4.13066">
        <ele>376.01</ele>
        <time>2022-03-17T13:44:31Z</time>
      </trkpt>
      <trkpt lat="44.34502" lon="4.13065">
        <ele>376.01</ele>
        <time>2022-03-17T13:44:45Z</time>
      </trkpt>
      <trkpt lat="44.34503" lon="4.13064">
        <ele>376.01</ele>
        <time>2022-03-17T13:45:02Z</time>
      </trkpt>
      <trkpt lat="44.34502" lon="4.13065">
        <ele>375.53</ele>
        <time>2022-03-17T13:45:19Z</time>
      </trkpt>
      <trkpt lat="44.345" lon="4.13065">
        <ele>375.53</ele>
        <time>2022-03-17T13:45:33Z</time>
      </trkpt>
      <trkpt lat="44.34494" lon="4.13063">
        <ele>375.05</ele>
        <time>2022-03-17T13:45:42Z</time>
      </trkpt>
      <trkpt lat="44.34488" lon="4.13062">
        <ele>374.57</ele>
        <time>2022-03-17T13:45:48Z</time>
      </trkpt>
      <trkpt lat="44.34485" lon="4.13059">
        <ele>374.09</ele>
        <time>2022-03-17T13:45:53Z</time>
      </trkpt>
      <trkpt lat="44.34478" lon="4.13054">
        <ele>373.13</ele>
        <time>2022-03-17T13:46:03Z</time>
      </trkpt>
      <trkpt lat="44.34475" lon="4.13053">
        <ele>373.13</ele>
        <time>2022-03-17T13:46:05Z</time>
      </trkpt>
      <trkpt lat="44.3447" lon="4.1305">
        <ele>372.17</ele>
        <time>2022-03-17T13:46:15Z</time>
      </trkpt>
      <trkpt lat="44.34468" lon="4.1305">
        <ele>371.69</ele>
        <time>2022-03-17T13:46:17Z</time>
      </trkpt>
      <trkpt lat="44.34456" lon="4.13046">
        <ele>370.73</ele>
        <time>2022-03-17T13:46:30Z</time>
      </trkpt>
      <trkpt lat="44.34447" lon="4.13043">
        <ele>369.28</ele>
        <time>2022-03-17T13:46:42Z</time>
      </trkpt>
      <trkpt lat="44.34438" lon="4.1304">
        <ele>368.32</ele>
        <time>2022-03-17T13:46:53Z</time>
      </trkpt>
      <trkpt lat="44.34426" lon="4.1304">
        <ele>367.36</ele>
        <time>2022-03-17T13:47:06Z</time>
      </trkpt>
      <trkpt lat="44.34424" lon="4.1304">
        <ele>366.88</ele>
        <time>2022-03-17T13:47:08Z</time>
      </trkpt>
      <trkpt lat="44.34414" lon="4.13041">
        <ele>366.4</ele>
        <time>2022-03-17T13:47:17Z</time>
      </trkpt>
      <trkpt lat="44.34412" lon="4.13042">
        <ele>366.4</ele>
        <time>2022-03-17T13:47:19Z</time>
      </trkpt>
      <trkpt lat="44.34404" lon="4.1305">
        <ele>365.44</ele>
        <time>2022-03-17T13:47:30Z</time>
      </trkpt>
      <trkpt lat="44.344" lon="4.13054">
        <ele>364.96</ele>
        <time>2022-03-17T13:47:35Z</time>
      </trkpt>
      <trkpt lat="44.3439" lon="4.13069">
        <ele>364.48</ele>
        <time>2022-03-17T13:47:52Z</time>
      </trkpt>
      <trkpt lat="44.34384" lon="4.13076">
        <ele>364</ele>
        <time>2022-03-17T13:48:04Z</time>
      </trkpt>
      <trkpt lat="44.34378" lon="4.13082">
        <ele>363.04</ele>
        <time>2022-03-17T13:48:13Z</time>
      </trkpt>
      <trkpt lat="44.34372" lon="4.13086">
        <ele>362.55</ele>
        <time>2022-03-17T13:48:26Z</time>
      </trkpt>
      <trkpt lat="44.34372" lon="4.13088">
        <ele>363.04</ele>
        <time>2022-03-17T13:48:45Z</time>
      </trkpt>
      <trkpt lat="44.34368" lon="4.13092">
        <ele>362.55</ele>
        <time>2022-03-17T13:48:56Z</time>
      </trkpt>
      <trkpt lat="44.34359" lon="4.13092">
        <ele>362.07</ele>
        <time>2022-03-17T13:49:08Z</time>
      </trkpt>
      <trkpt lat="44.34358" lon="4.13092">
        <ele>361.59</ele>
        <time>2022-03-17T13:49:10Z</time>
      </trkpt>
      <trkpt lat="44.34351" lon="4.13091">
        <ele>360.15</ele>
        <time>2022-03-17T13:49:22Z</time>
      </trkpt>
      <trkpt lat="44.34342" lon="4.13091">
        <ele>359.67</ele>
        <time>2022-03-17T13:49:35Z</time>
      </trkpt>
      <trkpt lat="44.34334" lon="4.13093">
        <ele>359.19</ele>
        <time>2022-03-17T13:49:47Z</time>
      </trkpt>
      <trkpt lat="44.34324" lon="4.13097">
        <ele>357.75</ele>
        <time>2022-03-17T13:50:00Z</time>
      </trkpt>
      <trkpt lat="44.34311" lon="4.13101">
        <ele>356.31</ele>
        <time>2022-03-17T13:50:13Z</time>
      </trkpt>
      <trkpt lat="44.34299" lon="4.13102">
        <ele>355.34</ele>
        <time>2022-03-17T13:50:25Z</time>
      </trkpt>
      <trkpt lat="44.34294" lon="4.13104">
        <ele>354.86</ele>
        <time>2022-03-17T13:50:31Z</time>
      </trkpt>
      <trkpt lat="44.34289" lon="4.13106">
        <ele>354.38</ele>
        <time>2022-03-17T13:50:44Z</time>
      </trkpt>
      <trkpt lat="44.34277" lon="4.13108">
        <ele>353.42</ele>
        <time>2022-03-17T13:50:56Z</time>
      </trkpt>
      <trkpt lat="44.34268" lon="4.1311">
        <ele>352.46</ele>
        <time>2022-03-17T13:51:09Z</time>
      </trkpt>
      <trkpt lat="44.34259" lon="4.13114">
        <ele>351.02</ele>
        <time>2022-03-17T13:51:22Z</time>
      </trkpt>
      <trkpt lat="44.34248" lon="4.13115">
        <ele>349.58</ele>
        <time>2022-03-17T13:51:35Z</time>
      </trkpt>
      <trkpt lat="44.34235" lon="4.13115">
        <ele>348.62</ele>
        <time>2022-03-17T13:51:47Z</time>
      </trkpt>
      <trkpt lat="44.34225" lon="4.13118">
        <ele>348.13</ele>
        <time>2022-03-17T13:51:57Z</time>
      </trkpt>
      <trkpt lat="44.34213" lon="4.13121">
        <ele>347.17</ele>
        <time>2022-03-17T13:52:11Z</time>
      </trkpt>
      <trkpt lat="44.34207" lon="4.13123">
        <ele>346.21</ele>
        <time>2022-03-17T13:52:23Z</time>
      </trkpt>
      <trkpt lat="44.34202" lon="4.13127">
        <ele>345.25</ele>
        <time>2022-03-17T13:52:36Z</time>
      </trkpt>
      <trkpt lat="44.34201" lon="4.13127">
        <ele>345.25</ele>
        <time>2022-03-17T13:52:38Z</time>
      </trkpt>
      <trkpt lat="44.34188" lon="4.13134">
        <ele>344.29</ele>
        <time>2022-03-17T13:52:50Z</time>
      </trkpt>
      <trkpt lat="44.34179" lon="4.13137">
        <ele>343.81</ele>
        <time>2022-03-17T13:53:01Z</time>
      </trkpt>
      <trkpt lat="44.34169" lon="4.1314">
        <ele>342.85</ele>
        <time>2022-03-17T13:53:14Z</time>
      </trkpt>
      <trkpt lat="44.34159" lon="4.13145">
        <ele>341.89</ele>
        <time>2022-03-17T13:53:27Z</time>
      </trkpt>
      <trkpt lat="44.34153" lon="4.13148">
        <ele>341.41</ele>
        <time>2022-03-17T13:53:39Z</time>
      </trkpt>
      <trkpt lat="44.3414" lon="4.13153">
        <ele>340.44</ele>
        <time>2022-03-17T13:53:54Z</time>
      </trkpt>
      <trkpt lat="44.34127" lon="4.13157">
        <ele>339.48</ele>
        <time>2022-03-17T13:54:08Z</time>
      </trkpt>
      <trkpt lat="44.34121" lon="4.13165">
        <ele>339</ele>
        <time>2022-03-17T13:54:20Z</time>
      </trkpt>
      <trkpt lat="44.34114" lon="4.13167">
        <ele>338.52</ele>
        <time>2022-03-17T13:54:26Z</time>
      </trkpt>
      <trkpt lat="44.34104" lon="4.13175">
        <ele>337.56</ele>
        <time>2022-03-17T13:54:38Z</time>
      </trkpt>
      <trkpt lat="44.34102" lon="4.13176">
        <ele>337.56</ele>
        <time>2022-03-17T13:54:40Z</time>
      </trkpt>
      <trkpt lat="44.34099" lon="4.13181">
        <ele>337.08</ele>
        <time>2022-03-17T13:54:51Z</time>
      </trkpt>
      <trkpt lat="44.34092" lon="4.13186">
        <ele>336.6</ele>
        <time>2022-03-17T13:54:59Z</time>
      </trkpt>
      <trkpt lat="44.34083" lon="4.13191">
        <ele>336.12</ele>
        <time>2022-03-17T13:55:10Z</time>
      </trkpt>
      <trkpt lat="44.34072" lon="4.132">
        <ele>335.16</ele>
        <time>2022-03-17T13:55:24Z</time>
      </trkpt>
      <trkpt lat="44.34063" lon="4.13208">
        <ele>334.2</ele>
        <time>2022-03-17T13:55:36Z</time>
      </trkpt>
      <trkpt lat="44.34054" lon="4.13216">
        <ele>333.71</ele>
        <time>2022-03-17T13:55:50Z</time>
      </trkpt>
      <trkpt lat="44.34048" lon="4.13222">
        <ele>333.23</ele>
        <time>2022-03-17T13:56:02Z</time>
      </trkpt>
      <trkpt lat="44.34043" lon="4.13228">
        <ele>333.23</ele>
        <time>2022-03-17T13:56:10Z</time>
      </trkpt>
      <trkpt lat="44.3404" lon="4.13229">
        <ele>332.75</ele>
        <time>2022-03-17T13:56:13Z</time>
      </trkpt>
      <trkpt lat="44.34038" lon="4.13231">
        <ele>332.75</ele>
        <time>2022-03-17T13:56:15Z</time>
      </trkpt>
      <trkpt lat="44.34034" lon="4.13234">
        <ele>332.75</ele>
        <time>2022-03-17T13:56:19Z</time>
      </trkpt>
      <trkpt lat="44.34031" lon="4.13242">
        <ele>332.27</ele>
        <time>2022-03-17T13:56:28Z</time>
      </trkpt>
      <trkpt lat="44.34022" lon="4.13253">
        <ele>331.79</ele>
        <time>2022-03-17T13:56:40Z</time>
      </trkpt>
      <trkpt lat="44.34019" lon="4.13256">
        <ele>331.79</ele>
        <time>2022-03-17T13:56:44Z</time>
      </trkpt>
      <trkpt lat="44.34019" lon="4.13258">
        <ele>331.79</ele>
        <time>2022-03-17T13:56:46Z</time>
      </trkpt>
      <trkpt lat="44.34009" lon="4.13274">
        <ele>331.31</ele>
        <time>2022-03-17T13:57:01Z</time>
      </trkpt>
      <trkpt lat="44.34003" lon="4.13287">
        <ele>330.35</ele>
        <time>2022-03-17T13:57:15Z</time>
      </trkpt>
      <trkpt lat="44.34002" lon="4.13288">
        <ele>330.35</ele>
        <time>2022-03-17T13:57:16Z</time>
      </trkpt>
      <trkpt lat="44.33999" lon="4.13294">
        <ele>330.35</ele>
        <time>2022-03-17T13:57:23Z</time>
      </trkpt>
      <trkpt lat="44.33997" lon="4.13299">
        <ele>330.35</ele>
        <time>2022-03-17T13:57:27Z</time>
      </trkpt>
      <trkpt lat="44.33992" lon="4.13315">
        <ele>329.87</ele>
        <time>2022-03-17T13:57:42Z</time>
      </trkpt>
      <trkpt lat="44.3399" lon="4.13317">
        <ele>329.87</ele>
        <time>2022-03-17T13:57:46Z</time>
      </trkpt>
      <trkpt lat="44.33987" lon="4.13319">
        <ele>329.87</ele>
        <time>2022-03-17T13:57:49Z</time>
      </trkpt>
      <trkpt lat="44.33982" lon="4.13317">
        <ele>329.87</ele>
        <time>2022-03-17T13:58:03Z</time>
      </trkpt>
      <trkpt lat="44.33983" lon="4.13312">
        <ele>329.39</ele>
        <time>2022-03-17T13:58:10Z</time>
      </trkpt>
      <trkpt lat="44.33983" lon="4.13309">
        <ele>328.91</ele>
        <time>2022-03-17T13:58:12Z</time>
      </trkpt>
      <trkpt lat="44.33986" lon="4.13298">
        <ele>328.91</ele>
        <time>2022-03-17T13:58:25Z</time>
      </trkpt>
      <trkpt lat="44.33986" lon="4.13297">
        <ele>328.91</ele>
        <time>2022-03-17T13:58:26Z</time>
      </trkpt>
      <trkpt lat="44.33989" lon="4.13295">
        <ele>324.1</ele>
        <time>2022-03-17T13:58:29Z</time>
      </trkpt>
      <trkpt lat="44.33989" lon="4.13295">
        <ele>332.27</ele>
        <time>2022-03-17T13:58:30Z</time>
      </trkpt>
      <trkpt lat="44.33989" lon="4.13294">
        <ele>328.91</ele>
        <time>2022-03-17T13:58:31Z</time>
      </trkpt>
      <trkpt lat="44.33991" lon="4.13289">
        <ele>327.95</ele>
        <time>2022-03-17T13:58:42Z</time>
      </trkpt>
      <trkpt lat="44.33988" lon="4.13277">
        <ele>326.99</ele>
        <time>2022-03-17T13:58:52Z</time>
      </trkpt>
      <trkpt lat="44.33985" lon="4.13263">
        <ele>326.02</ele>
        <time>2022-03-17T13:59:04Z</time>
      </trkpt>
      <trkpt lat="44.33981" lon="4.13251">
        <ele>325.06</ele>
        <time>2022-03-17T13:59:18Z</time>
      </trkpt>
      <trkpt lat="44.33978" lon="4.13242">
        <ele>324.1</ele>
        <time>2022-03-17T13:59:31Z</time>
      </trkpt>
      <trkpt lat="44.33977" lon="4.13239">
        <ele>323.62</ele>
        <time>2022-03-17T13:59:49Z</time>
      </trkpt>
      <trkpt lat="44.33973" lon="4.13234">
        <ele>323.14</ele>
        <time>2022-03-17T14:00:03Z</time>
      </trkpt>
      <trkpt lat="44.33973" lon="4.13233">
        <ele>323.14</ele>
        <time>2022-03-17T14:00:14Z</time>
      </trkpt>
      <trkpt lat="44.33968" lon="4.13232">
        <ele>323.14</ele>
        <time>2022-03-17T14:00:24Z</time>
      </trkpt>
      <trkpt lat="44.33967" lon="4.13232">
        <ele>322.66</ele>
        <time>2022-03-17T14:00:41Z</time>
      </trkpt>
      <trkpt lat="44.33966" lon="4.13232">
        <ele>322.66</ele>
        <time>2022-03-17T14:01:08Z</time>
      </trkpt>
      <trkpt lat="44.33966" lon="4.1323">
        <ele>322.18</ele>
        <time>2022-03-17T14:01:32Z</time>
      </trkpt>
      <trkpt lat="44.33966" lon="4.13229">
        <ele>322.18</ele>
        <time>2022-03-17T14:01:55Z</time>
      </trkpt>
      <trkpt lat="44.33965" lon="4.13228">
        <ele>322.18</ele>
        <time>2022-03-17T14:02:12Z</time>
      </trkpt>
      <trkpt lat="44.33964" lon="4.13228">
        <ele>322.18</ele>
        <time>2022-03-17T14:02:36Z</time>
      </trkpt>
      <trkpt lat="44.33964" lon="4.13228">
        <ele>321.7</ele>
        <time>2022-03-17T14:02:58Z</time>
      </trkpt>
      <trkpt lat="44.33964" lon="4.13227">
        <ele>321.7</ele>
        <time>2022-03-17T14:03:20Z</time>
      </trkpt>
      <trkpt lat="44.33964" lon="4.13226">
        <ele>321.7</ele>
        <time>2022-03-17T14:03:26Z</time>
      </trkpt>
      <trkpt lat="44.33961" lon="4.13221">
        <ele>321.7</ele>
        <time>2022-03-17T14:03:33Z</time>
      </trkpt>
      <trkpt lat="44.33958" lon="4.13216">
        <ele>320.74</ele>
        <time>2022-03-17T14:03:44Z</time>
      </trkpt>
      <trkpt lat="44.33957" lon="4.13213">
        <ele>320.74</ele>
        <time>2022-03-17T14:03:47Z</time>
      </trkpt>
      <trkpt lat="44.33953" lon="4.13204">
        <ele>319.3</ele>
        <time>2022-03-17T14:03:59Z</time>
      </trkpt>
      <trkpt lat="44.33958" lon="4.13193">
        <ele>318.81</ele>
        <time>2022-03-17T14:04:10Z</time>
      </trkpt>
      <trkpt lat="44.33962" lon="4.13186">
        <ele>317.85</ele>
        <time>2022-03-17T14:04:23Z</time>
      </trkpt>
      <trkpt lat="44.33965" lon="4.13182">
        <ele>317.37</ele>
        <time>2022-03-17T14:04:34Z</time>
      </trkpt>
      <trkpt lat="44.33973" lon="4.13171">
        <ele>316.41</ele>
        <time>2022-03-17T14:04:49Z</time>
      </trkpt>
      <trkpt lat="44.3398" lon="4.13163">
        <ele>315.45</ele>
        <time>2022-03-17T14:05:03Z</time>
      </trkpt>
      <trkpt lat="44.33986" lon="4.13161">
        <ele>314.49</ele>
        <time>2022-03-17T14:05:14Z</time>
      </trkpt>
      <trkpt lat="44.33995" lon="4.13151">
        <ele>314.01</ele>
        <time>2022-03-17T14:05:26Z</time>
      </trkpt>
      <trkpt lat="44.34" lon="4.13147">
        <ele>313.05</ele>
        <time>2022-03-17T14:05:34Z</time>
      </trkpt>
      <trkpt lat="44.34008" lon="4.13137">
        <ele>312.57</ele>
        <time>2022-03-17T14:05:47Z</time>
      </trkpt>
      <trkpt lat="44.34008" lon="4.13128">
        <ele>312.09</ele>
        <time>2022-03-17T14:05:57Z</time>
      </trkpt>
      <trkpt lat="44.34004" lon="4.1313">
        <ele>311.6</ele>
        <time>2022-03-17T14:06:08Z</time>
      </trkpt>
      <trkpt lat="44.33999" lon="4.1313">
        <ele>311.6</ele>
        <time>2022-03-17T14:06:21Z</time>
      </trkpt>
      <trkpt lat="44.33992" lon="4.13133">
        <ele>311.6</ele>
        <time>2022-03-17T14:06:31Z</time>
      </trkpt>
      <trkpt lat="44.33986" lon="4.13135">
        <ele>311.12</ele>
        <time>2022-03-17T14:06:36Z</time>
      </trkpt>
      <trkpt lat="44.33977" lon="4.13138">
        <ele>310.64</ele>
        <time>2022-03-17T14:06:48Z</time>
      </trkpt>
      <trkpt lat="44.33969" lon="4.13141">
        <ele>310.64</ele>
        <time>2022-03-17T14:07:00Z</time>
      </trkpt>
      <trkpt lat="44.33961" lon="4.1314">
        <ele>310.16</ele>
        <time>2022-03-17T14:07:13Z</time>
      </trkpt>
      <trkpt lat="44.33953" lon="4.13144">
        <ele>309.2</ele>
        <time>2022-03-17T14:07:25Z</time>
      </trkpt>
      <trkpt lat="44.33952" lon="4.13145">
        <ele>309.2</ele>
        <time>2022-03-17T14:07:26Z</time>
      </trkpt>
      <trkpt lat="44.33945" lon="4.13152">
        <ele>309.2</ele>
        <time>2022-03-17T14:07:40Z</time>
      </trkpt>
      <trkpt lat="44.3394" lon="4.13163">
        <ele>309.2</ele>
        <time>2022-03-17T14:07:53Z</time>
      </trkpt>
      <trkpt lat="44.33935" lon="4.1317">
        <ele>309.2</ele>
        <time>2022-03-17T14:08:03Z</time>
      </trkpt>
      <trkpt lat="44.33931" lon="4.13173">
        <ele>308.72</ele>
        <time>2022-03-17T14:08:16Z</time>
      </trkpt>
      <trkpt lat="44.33932" lon="4.13175">
        <ele>308.72</ele>
        <time>2022-03-17T14:08:37Z</time>
      </trkpt>
      <trkpt lat="44.33931" lon="4.13175">
        <ele>308.72</ele>
        <time>2022-03-17T14:08:42Z</time>
      </trkpt>
      <trkpt lat="44.33927" lon="4.13175">
        <ele>308.72</ele>
        <time>2022-03-17T14:08:53Z</time>
      </trkpt>
      <trkpt lat="44.33927" lon="4.13177">
        <ele>308.24</ele>
        <time>2022-03-17T14:09:08Z</time>
      </trkpt>
      <trkpt lat="44.33927" lon="4.13179">
        <ele>308.24</ele>
        <time>2022-03-17T14:09:40Z</time>
      </trkpt>
      <trkpt lat="44.33926" lon="4.13179">
        <ele>308.24</ele>
        <time>2022-03-17T14:10:10Z</time>
      </trkpt>
      <trkpt lat="44.33926" lon="4.1318">
        <ele>308.24</ele>
        <time>2022-03-17T14:10:38Z</time>
      </trkpt>
      <trkpt lat="44.33925" lon="4.13179">
        <ele>308.24</ele>
        <time>2022-03-17T14:11:08Z</time>
      </trkpt>
      <trkpt lat="44.33923" lon="4.13179">
        <ele>308.24</ele>
        <time>2022-03-17T14:11:42Z</time>
      </trkpt>
      <trkpt lat="44.33922" lon="4.13179">
        <ele>308.24</ele>
        <time>2022-03-17T14:12:18Z</time>
      </trkpt>
      <trkpt lat="44.33923" lon="4.13178">
        <ele>308.24</ele>
        <time>2022-03-17T14:12:54Z</time>
      </trkpt>
      <trkpt lat="44.33923" lon="4.13178">
        <ele>307.76</ele>
        <time>2022-03-17T14:13:22Z</time>
      </trkpt>
      <trkpt lat="44.33924" lon="4.13177">
        <ele>307.76</ele>
        <time>2022-03-17T14:13:53Z</time>
      </trkpt>
      <trkpt lat="44.33924" lon="4.13178">
        <ele>307.76</ele>
        <time>2022-03-17T14:14:29Z</time>
      </trkpt>
      <trkpt lat="44.33924" lon="4.13178">
        <ele>307.76</ele>
        <time>2022-03-17T14:15:03Z</time>
      </trkpt>
      <trkpt lat="44.33924" lon="4.13178">
        <ele>307.76</ele>
        <time>2022-03-17T14:15:37Z</time>
      </trkpt>
      <trkpt lat="44.33923" lon="4.13177">
        <ele>307.76</ele>
        <time>2022-03-17T14:16:11Z</time>
      </trkpt>
      <trkpt lat="44.33923" lon="4.13179">
        <ele>307.76</ele>
        <time>2022-03-17T14:16:44Z</time>
      </trkpt>
      <trkpt lat="44.33923" lon="4.1318">
        <ele>307.28</ele>
        <time>2022-03-17T14:17:20Z</time>
      </trkpt>
      <trkpt lat="44.33923" lon="4.1318">
        <ele>307.28</ele>
        <time>2022-03-17T14:17:54Z</time>
      </trkpt>
      <trkpt lat="44.33924" lon="4.1318">
        <ele>307.28</ele>
        <time>2022-03-17T14:18:29Z</time>
      </trkpt>
      <trkpt lat="44.33924" lon="4.1318">
        <ele>307.28</ele>
        <time>2022-03-17T14:19:04Z</time>
      </trkpt>
      <trkpt lat="44.33923" lon="4.13181">
        <ele>307.28</ele>
        <time>2022-03-17T14:19:36Z</time>
      </trkpt>
      <trkpt lat="44.33923" lon="4.13181">
        <ele>307.28</ele>
        <time>2022-03-17T14:20:06Z</time>
      </trkpt>
      <trkpt lat="44.33923" lon="4.13181">
        <ele>306.8</ele>
        <time>2022-03-17T14:20:39Z</time>
      </trkpt>
      <trkpt lat="44.33924" lon="4.13181">
        <ele>306.8</ele>
        <time>2022-03-17T14:21:12Z</time>
      </trkpt>
      <trkpt lat="44.33924" lon="4.13181">
        <ele>306.8</ele>
        <time>2022-03-17T14:21:53Z</time>
      </trkpt>
      <trkpt lat="44.33925" lon="4.13184">
        <ele>306.8</ele>
        <time>2022-03-17T14:22:23Z</time>
      </trkpt>
      <trkpt lat="44.33925" lon="4.13184">
        <ele>306.8</ele>
        <time>2022-03-17T14:22:53Z</time>
      </trkpt>
      <trkpt lat="44.33926" lon="4.13182">
        <ele>306.8</ele>
        <time>2022-03-17T14:23:27Z</time>
      </trkpt>
      <trkpt lat="44.33925" lon="4.13182">
        <ele>306.8</ele>
        <time>2022-03-17T14:23:57Z</time>
      </trkpt>
      <trkpt lat="44.33924" lon="4.13182">
        <ele>306.8</ele>
        <time>2022-03-17T14:24:30Z</time>
      </trkpt>
      <trkpt lat="44.33926" lon="4.13183">
        <ele>306.8</ele>
        <time>2022-03-17T14:24:48Z</time>
      </trkpt>
      <trkpt lat="44.33933" lon="4.13181">
        <ele>307.28</ele>
        <time>2022-03-17T14:25:01Z</time>
      </trkpt>
      <trkpt lat="44.3394" lon="4.13178">
        <ele>307.28</ele>
        <time>2022-03-17T14:25:13Z</time>
      </trkpt>
      <trkpt lat="44.33942" lon="4.13175">
        <ele>307.76</ele>
        <time>2022-03-17T14:25:29Z</time>
      </trkpt>
      <trkpt lat="44.33944" lon="4.13172">
        <ele>308.24</ele>
        <time>2022-03-17T14:25:53Z</time>
      </trkpt>
      <trkpt lat="44.33945" lon="4.13173">
        <ele>307.76</ele>
        <time>2022-03-17T14:26:21Z</time>
      </trkpt>
      <trkpt lat="44.33945" lon="4.13172">
        <ele>307.76</ele>
        <time>2022-03-17T14:26:41Z</time>
      </trkpt>
      <trkpt lat="44.33945" lon="4.13172">
        <ele>308.24</ele>
        <time>2022-03-17T14:27:10Z</time>
      </trkpt>
      <trkpt lat="44.33946" lon="4.13172">
        <ele>308.24</ele>
        <time>2022-03-17T14:27:41Z</time>
      </trkpt>
      <trkpt lat="44.33946" lon="4.13171">
        <ele>308.24</ele>
        <time>2022-03-17T14:27:56Z</time>
      </trkpt>
      <trkpt lat="44.33947" lon="4.1317">
        <ele>307.76</ele>
        <time>2022-03-17T14:28:19Z</time>
      </trkpt>
      <trkpt lat="44.33947" lon="4.1317">
        <ele>308.24</ele>
        <time>2022-03-17T14:28:39Z</time>
      </trkpt>
      <trkpt lat="44.33948" lon="4.1317">
        <ele>308.72</ele>
        <time>2022-03-17T14:28:59Z</time>
      </trkpt>
      <trkpt lat="44.33948" lon="4.13168">
        <ele>307.76</ele>
        <time>2022-03-17T14:29:15Z</time>
      </trkpt>
      <trkpt lat="44.33947" lon="4.13164">
        <ele>307.76</ele>
        <time>2022-03-17T14:29:29Z</time>
      </trkpt>
      <trkpt lat="44.33947" lon="4.13164">
        <ele>307.76</ele>
        <time>2022-03-17T14:29:31Z</time>
      </trkpt>
      <trkpt lat="44.33945" lon="4.13161">
        <ele>307.76</ele>
        <time>2022-03-17T14:29:43Z</time>
      </trkpt>
      <trkpt lat="44.33944" lon="4.1316">
        <ele>307.76</ele>
        <time>2022-03-17T14:29:46Z</time>
      </trkpt>
      <trkpt lat="44.33937" lon="4.13159">
        <ele>306.32</ele>
        <time>2022-03-17T14:29:59Z</time>
      </trkpt>
      <trkpt lat="44.33929" lon="4.13163">
        <ele>305.84</ele>
        <time>2022-03-17T14:30:12Z</time>
      </trkpt>
      <trkpt lat="44.33923" lon="4.1317">
        <ele>304.88</ele>
        <time>2022-03-17T14:30:23Z</time>
      </trkpt>
      <trkpt lat="44.33913" lon="4.13175">
        <ele>303.91</ele>
        <time>2022-03-17T14:30:35Z</time>
      </trkpt>
      <trkpt lat="44.33908" lon="4.13182">
        <ele>302.95</ele>
        <time>2022-03-17T14:30:46Z</time>
      </trkpt>
      <trkpt lat="44.33902" lon="4.13191">
        <ele>301.99</ele>
        <time>2022-03-17T14:30:58Z</time>
      </trkpt>
      <trkpt lat="44.339" lon="4.13193">
        <ele>301.51</ele>
        <time>2022-03-17T14:31:01Z</time>
      </trkpt>
      <trkpt lat="44.33897" lon="4.13202">
        <ele>301.03</ele>
        <time>2022-03-17T14:31:09Z</time>
      </trkpt>
      <trkpt lat="44.33894" lon="4.13207">
        <ele>300.55</ele>
        <time>2022-03-17T14:31:15Z</time>
      </trkpt>
      <trkpt lat="44.33888" lon="4.13207">
        <ele>299.59</ele>
        <time>2022-03-17T14:31:24Z</time>
      </trkpt>
      <trkpt lat="44.33885" lon="4.13201">
        <ele>298.63</ele>
        <time>2022-03-17T14:31:33Z</time>
      </trkpt>
      <trkpt lat="44.33884" lon="4.13198">
        <ele>298.63</ele>
        <time>2022-03-17T14:31:37Z</time>
      </trkpt>
      <trkpt lat="44.33882" lon="4.13193">
        <ele>298.15</ele>
        <time>2022-03-17T14:31:41Z</time>
      </trkpt>
      <trkpt lat="44.33882" lon="4.13177">
        <ele>296.7</ele>
        <time>2022-03-17T14:31:56Z</time>
      </trkpt>
      <trkpt lat="44.33884" lon="4.13168">
        <ele>295.74</ele>
        <time>2022-03-17T14:32:08Z</time>
      </trkpt>
      <trkpt lat="44.33883" lon="4.13158">
        <ele>294.78</ele>
        <time>2022-03-17T14:32:22Z</time>
      </trkpt>
      <trkpt lat="44.3389" lon="4.13149">
        <ele>293.82</ele>
        <time>2022-03-17T14:32:35Z</time>
      </trkpt>
      <trkpt lat="44.33895" lon="4.13139">
        <ele>293.34</ele>
        <time>2022-03-17T14:32:49Z</time>
      </trkpt>
      <trkpt lat="44.33903" lon="4.13122">
        <ele>292.86</ele>
        <time>2022-03-17T14:33:03Z</time>
      </trkpt>
      <trkpt lat="44.3391" lon="4.1311">
        <ele>291.9</ele>
        <time>2022-03-17T14:33:17Z</time>
      </trkpt>
      <trkpt lat="44.33917" lon="4.13097">
        <ele>291.42</ele>
        <time>2022-03-17T14:33:30Z</time>
      </trkpt>
      <trkpt lat="44.33926" lon="4.13087">
        <ele>290.94</ele>
        <time>2022-03-17T14:33:44Z</time>
      </trkpt>
      <trkpt lat="44.33933" lon="4.13077">
        <ele>290.46</ele>
        <time>2022-03-17T14:33:58Z</time>
      </trkpt>
      <trkpt lat="44.33943" lon="4.13067">
        <ele>289.97</ele>
        <time>2022-03-17T14:34:09Z</time>
      </trkpt>
      <trkpt lat="44.33956" lon="4.13061">
        <ele>289.49</ele>
        <time>2022-03-17T14:34:23Z</time>
      </trkpt>
      <trkpt lat="44.33965" lon="4.13058">
        <ele>289.01</ele>
        <time>2022-03-17T14:34:35Z</time>
      </trkpt>
      <trkpt lat="44.33976" lon="4.13051">
        <ele>287.57</ele>
        <time>2022-03-17T14:34:47Z</time>
      </trkpt>
      <trkpt lat="44.33986" lon="4.13042">
        <ele>288.05</ele>
        <time>2022-03-17T14:35:00Z</time>
      </trkpt>
      <trkpt lat="44.33994" lon="4.1303">
        <ele>286.13</ele>
        <time>2022-03-17T14:35:13Z</time>
      </trkpt>
      <trkpt lat="44.34004" lon="4.13021">
        <ele>285.17</ele>
        <time>2022-03-17T14:35:26Z</time>
      </trkpt>
      <trkpt lat="44.34016" lon="4.13014">
        <ele>285.17</ele>
        <time>2022-03-17T14:35:38Z</time>
      </trkpt>
      <trkpt lat="44.34025" lon="4.13012">
        <ele>284.69</ele>
        <time>2022-03-17T14:35:49Z</time>
      </trkpt>
      <trkpt lat="44.34034" lon="4.13004">
        <ele>284.21</ele>
        <time>2022-03-17T14:36:04Z</time>
      </trkpt>
      <trkpt lat="44.34041" lon="4.12995">
        <ele>283.73</ele>
        <time>2022-03-17T14:36:16Z</time>
      </trkpt>
      <trkpt lat="44.34049" lon="4.12978">
        <ele>283.25</ele>
        <time>2022-03-17T14:36:28Z</time>
      </trkpt>
      <trkpt lat="44.34052" lon="4.12958">
        <ele>282.77</ele>
        <time>2022-03-17T14:36:39Z</time>
      </trkpt>
      <trkpt lat="44.34052" lon="4.12942">
        <ele>282.28</ele>
        <time>2022-03-17T14:36:51Z</time>
      </trkpt>
      <trkpt lat="44.34056" lon="4.12935">
        <ele>281.8</ele>
        <time>2022-03-17T14:36:58Z</time>
      </trkpt>
      <trkpt lat="44.34068" lon="4.1293">
        <ele>281.32</ele>
        <time>2022-03-17T14:37:09Z</time>
      </trkpt>
      <trkpt lat="44.3408" lon="4.12926">
        <ele>280.36</ele>
        <time>2022-03-17T14:37:24Z</time>
      </trkpt>
      <trkpt lat="44.34093" lon="4.12926">
        <ele>279.4</ele>
        <time>2022-03-17T14:37:36Z</time>
      </trkpt>
      <trkpt lat="44.34102" lon="4.12927">
        <ele>278.44</ele>
        <time>2022-03-17T14:37:48Z</time>
      </trkpt>
      <trkpt lat="44.34106" lon="4.12929">
        <ele>278.44</ele>
        <time>2022-03-17T14:37:51Z</time>
      </trkpt>
      <trkpt lat="44.34114" lon="4.1292">
        <ele>278.44</ele>
        <time>2022-03-17T14:38:04Z</time>
      </trkpt>
      <trkpt lat="44.34118" lon="4.12898">
        <ele>278.44</ele>
        <time>2022-03-17T14:38:19Z</time>
      </trkpt>
      <trkpt lat="44.34118" lon="4.12895">
        <ele>277.96</ele>
        <time>2022-03-17T14:38:21Z</time>
      </trkpt>
      <trkpt lat="44.3412" lon="4.12874">
        <ele>277.96</ele>
        <time>2022-03-17T14:38:34Z</time>
      </trkpt>
      <trkpt lat="44.34122" lon="4.12857">
        <ele>277</ele>
        <time>2022-03-17T14:38:47Z</time>
      </trkpt>
      <trkpt lat="44.34121" lon="4.12849">
        <ele>276.52</ele>
        <time>2022-03-17T14:39:00Z</time>
      </trkpt>
      <trkpt lat="44.34127" lon="4.12833">
        <ele>274.59</ele>
        <time>2022-03-17T14:39:14Z</time>
      </trkpt>
      <trkpt lat="44.34136" lon="4.1282">
        <ele>273.63</ele>
        <time>2022-03-17T14:39:28Z</time>
      </trkpt>
      <trkpt lat="44.34138" lon="4.12816">
        <ele>272.67</ele>
        <time>2022-03-17T14:39:33Z</time>
      </trkpt>
      <trkpt lat="44.34145" lon="4.12804">
        <ele>271.23</ele>
        <time>2022-03-17T14:39:45Z</time>
      </trkpt>
      <trkpt lat="44.34155" lon="4.12791">
        <ele>270.27</ele>
        <time>2022-03-17T14:39:59Z</time>
      </trkpt>
      <trkpt lat="44.3416" lon="4.12771">
        <ele>268.83</ele>
        <time>2022-03-17T14:40:13Z</time>
      </trkpt>
      <trkpt lat="44.3416" lon="4.12769">
        <ele>268.83</ele>
        <time>2022-03-17T14:40:14Z</time>
      </trkpt>
      <trkpt lat="44.34162" lon="4.12751">
        <ele>267.86</ele>
        <time>2022-03-17T14:40:28Z</time>
      </trkpt>
      <trkpt lat="44.34167" lon="4.12737">
        <ele>266.42</ele>
        <time>2022-03-17T14:40:41Z</time>
      </trkpt>
      <trkpt lat="44.34171" lon="4.12726">
        <ele>265.46</ele>
        <time>2022-03-17T14:40:52Z</time>
      </trkpt>
      <trkpt lat="44.34179" lon="4.12711">
        <ele>264.5</ele>
        <time>2022-03-17T14:41:05Z</time>
      </trkpt>
      <trkpt lat="44.34179" lon="4.12708">
        <ele>260.17</ele>
        <time>2022-03-17T14:41:07Z</time>
      </trkpt>
      <trkpt lat="44.34179" lon="4.12708">
        <ele>266.9</ele>
        <time>2022-03-17T14:41:08Z</time>
      </trkpt>
      <trkpt lat="44.34179" lon="4.12707">
        <ele>256.81</ele>
        <time>2022-03-17T14:41:10Z</time>
      </trkpt>
      <trkpt lat="44.34179" lon="4.12707">
        <ele>269.31</ele>
        <time>2022-03-17T14:41:11Z</time>
      </trkpt>
      <trkpt lat="44.34179" lon="4.12706">
        <ele>265.46</ele>
        <time>2022-03-17T14:41:12Z</time>
      </trkpt>
      <trkpt lat="44.34179" lon="4.12705">
        <ele>259.21</ele>
        <time>2022-03-17T14:41:18Z</time>
      </trkpt>
      <trkpt lat="44.34179" lon="4.12706">
        <ele>268.83</ele>
        <time>2022-03-17T14:41:19Z</time>
      </trkpt>
      <trkpt lat="44.34178" lon="4.12706">
        <ele>265.94</ele>
        <time>2022-03-17T14:41:20Z</time>
      </trkpt>
      <trkpt lat="44.34178" lon="4.12706">
        <ele>264.5</ele>
        <time>2022-03-17T14:41:22Z</time>
      </trkpt>
      <trkpt lat="44.34175" lon="4.12697">
        <ele>263.54</ele>
        <time>2022-03-17T14:41:37Z</time>
      </trkpt>
      <trkpt lat="44.34172" lon="4.12698">
        <ele>263.06</ele>
        <time>2022-03-17T14:41:41Z</time>
      </trkpt>
      <trkpt lat="44.34168" lon="4.12695">
        <ele>262.1</ele>
        <time>2022-03-17T14:41:47Z</time>
      </trkpt>
      <trkpt lat="44.34162" lon="4.12692">
        <ele>261.14</ele>
        <time>2022-03-17T14:41:55Z</time>
      </trkpt>
      <trkpt lat="44.34161" lon="4.12691">
        <ele>261.62</ele>
        <time>2022-03-17T14:41:57Z</time>
      </trkpt>
      <trkpt lat="44.34159" lon="4.1268">
        <ele>260.65</ele>
        <time>2022-03-17T14:42:07Z</time>
      </trkpt>
      <trkpt lat="44.34159" lon="4.12672">
        <ele>260.65</ele>
        <time>2022-03-17T14:42:12Z</time>
      </trkpt>
      <trkpt lat="44.34162" lon="4.12662">
        <ele>260.17</ele>
        <time>2022-03-17T14:42:27Z</time>
      </trkpt>
      <trkpt lat="44.34167" lon="4.12659">
        <ele>259.69</ele>
        <time>2022-03-17T14:42:42Z</time>
      </trkpt>
      <trkpt lat="44.34169" lon="4.1266">
        <ele>259.69</ele>
        <time>2022-03-17T14:42:56Z</time>
      </trkpt>
      <trkpt lat="44.34171" lon="4.12661">
        <ele>259.69</ele>
        <time>2022-03-17T14:43:11Z</time>
      </trkpt>
      <trkpt lat="44.3417" lon="4.1266">
        <ele>259.21</ele>
        <time>2022-03-17T14:43:30Z</time>
      </trkpt>
      <trkpt lat="44.34166" lon="4.12656">
        <ele>259.21</ele>
        <time>2022-03-17T14:43:43Z</time>
      </trkpt>
      <trkpt lat="44.34167" lon="4.12653">
        <ele>259.21</ele>
        <time>2022-03-17T14:43:46Z</time>
      </trkpt>
      <trkpt lat="44.34171" lon="4.12643">
        <ele>259.21</ele>
        <time>2022-03-17T14:43:58Z</time>
      </trkpt>
      <trkpt lat="44.34171" lon="4.12644">
        <ele>258.73</ele>
        <time>2022-03-17T14:44:22Z</time>
      </trkpt>
      <trkpt lat="44.34169" lon="4.1264">
        <ele>258.73</ele>
        <time>2022-03-17T14:44:35Z</time>
      </trkpt>
      <trkpt lat="44.3417" lon="4.1264">
        <ele>258.73</ele>
        <time>2022-03-17T14:44:59Z</time>
      </trkpt>
      <trkpt lat="44.34169" lon="4.12641">
        <ele>258.25</ele>
        <time>2022-03-17T14:45:16Z</time>
      </trkpt>
      <trkpt lat="44.34169" lon="4.12641">
        <ele>258.25</ele>
        <time>2022-03-17T14:45:29Z</time>
      </trkpt>
      <trkpt lat="44.3417" lon="4.12641">
        <ele>258.25</ele>
        <time>2022-03-17T14:45:43Z</time>
      </trkpt>
      <trkpt lat="44.34169" lon="4.12641">
        <ele>258.25</ele>
        <time>2022-03-17T14:45:52Z</time>
      </trkpt>
      <trkpt lat="44.34169" lon="4.12641">
        <ele>257.77</ele>
        <time>2022-03-17T14:45:59Z</time>
      </trkpt>
      <trkpt lat="44.34169" lon="4.12642">
        <ele>257.77</ele>
        <time>2022-03-17T14:46:10Z</time>
      </trkpt>
      <trkpt lat="44.34169" lon="4.12648">
        <ele>243.35</ele>
        <time>2022-03-17T14:46:22Z</time>
      </trkpt>
      <trkpt lat="44.34169" lon="4.12649">
        <ele>272.19</ele>
        <time>2022-03-17T14:46:23Z</time>
      </trkpt>
      <trkpt lat="44.34169" lon="4.1265">
        <ele>258.73</ele>
        <time>2022-03-17T14:46:24Z</time>
      </trkpt>
      <trkpt lat="44.3417" lon="4.12652">
        <ele>257.77</ele>
        <time>2022-03-17T14:46:26Z</time>
      </trkpt>
      <trkpt lat="44.34168" lon="4.12659">
        <ele>257.77</ele>
        <time>2022-03-17T14:46:36Z</time>
      </trkpt>
      <trkpt lat="44.34168" lon="4.12658">
        <ele>257.77</ele>
        <time>2022-03-17T14:46:46Z</time>
      </trkpt>
      <trkpt lat="44.34167" lon="4.12661">
        <ele>257.77</ele>
        <time>2022-03-17T14:46:58Z</time>
      </trkpt>
      <trkpt lat="44.34168" lon="4.1266">
        <ele>257.77</ele>
        <time>2022-03-17T14:46:59Z</time>
      </trkpt>
      <trkpt lat="44.34168" lon="4.12648">
        <ele>257.29</ele>
        <time>2022-03-17T14:47:10Z</time>
      </trkpt>
      <trkpt lat="44.3417" lon="4.12637">
        <ele>257.29</ele>
        <time>2022-03-17T14:47:23Z</time>
      </trkpt>
      <trkpt lat="44.3417" lon="4.12637">
        <ele>257.77</ele>
        <time>2022-03-17T14:47:24Z</time>
      </trkpt>
      <trkpt lat="44.34171" lon="4.1263">
        <ele>257.29</ele>
        <time>2022-03-17T14:47:32Z</time>
      </trkpt>
      <trkpt lat="44.34173" lon="4.12615">
        <ele>257.29</ele>
        <time>2022-03-17T14:47:45Z</time>
      </trkpt>
      <trkpt lat="44.34173" lon="4.12607">
        <ele>257.29</ele>
        <time>2022-03-17T14:48:00Z</time>
      </trkpt>
      <trkpt lat="44.34173" lon="4.12604">
        <ele>257.29</ele>
        <time>2022-03-17T14:48:16Z</time>
      </trkpt>
      <trkpt lat="44.34176" lon="4.12598">
        <ele>256.81</ele>
        <time>2022-03-17T14:48:33Z</time>
      </trkpt>
      <trkpt lat="44.34177" lon="4.12596">
        <ele>256.81</ele>
        <time>2022-03-17T14:48:58Z</time>
      </trkpt>
      <trkpt lat="44.34175" lon="4.12595">
        <ele>256.33</ele>
        <time>2022-03-17T14:49:15Z</time>
      </trkpt>
      <trkpt lat="44.34175" lon="4.12595">
        <ele>256.33</ele>
        <time>2022-03-17T14:49:25Z</time>
      </trkpt>
      <trkpt lat="44.34176" lon="4.12589">
        <ele>256.33</ele>
        <time>2022-03-17T14:49:31Z</time>
      </trkpt>
      <trkpt lat="44.34176" lon="4.12578">
        <ele>256.33</ele>
        <time>2022-03-17T14:49:39Z</time>
      </trkpt>
      <trkpt lat="44.34178" lon="4.12561">
        <ele>256.33</ele>
        <time>2022-03-17T14:49:54Z</time>
      </trkpt>
      <trkpt lat="44.34178" lon="4.12555">
        <ele>256.33</ele>
        <time>2022-03-17T14:49:59Z</time>
      </trkpt>
      <trkpt lat="44.34179" lon="4.12552">
        <ele>256.33</ele>
        <time>2022-03-17T14:50:08Z</time>
      </trkpt>
      <trkpt lat="44.3418" lon="4.12549">
        <ele>256.33</ele>
        <time>2022-03-17T14:50:10Z</time>
      </trkpt>
      <trkpt lat="44.34181" lon="4.12536">
        <ele>256.33</ele>
        <time>2022-03-17T14:50:21Z</time>
      </trkpt>
      <trkpt lat="44.34182" lon="4.12531">
        <ele>256.33</ele>
        <time>2022-03-17T14:50:24Z</time>
      </trkpt>
      <trkpt lat="44.34182" lon="4.12519">
        <ele>256.33</ele>
        <time>2022-03-17T14:50:33Z</time>
      </trkpt>
      <trkpt lat="44.34182" lon="4.12515">
        <ele>256.33</ele>
        <time>2022-03-17T14:50:36Z</time>
      </trkpt>
      <trkpt lat="44.34183" lon="4.12505">
        <ele>255.85</ele>
        <time>2022-03-17T14:50:51Z</time>
      </trkpt>
      <trkpt lat="44.34183" lon="4.12504">
        <ele>255.85</ele>
        <time>2022-03-17T14:50:57Z</time>
      </trkpt>
      <trkpt lat="44.34183" lon="4.12497">
        <ele>256.81</ele>
        <time>2022-03-17T14:51:02Z</time>
      </trkpt>
      <trkpt lat="44.34187" lon="4.12475">
        <ele>255.85</ele>
        <time>2022-03-17T14:51:17Z</time>
      </trkpt>
      <trkpt lat="44.34186" lon="4.12471">
        <ele>255.85</ele>
        <time>2022-03-17T14:51:20Z</time>
      </trkpt>
      <trkpt lat="44.34188" lon="4.1246">
        <ele>255.85</ele>
        <time>2022-03-17T14:51:34Z</time>
      </trkpt>
      <trkpt lat="44.34188" lon="4.12455">
        <ele>255.85</ele>
        <time>2022-03-17T14:51:46Z</time>
      </trkpt>
      <trkpt lat="44.3419" lon="4.12437">
        <ele>255.85</ele>
        <time>2022-03-17T14:51:59Z</time>
      </trkpt>
      <trkpt lat="44.34192" lon="4.12425">
        <ele>255.85</ele>
        <time>2022-03-17T14:52:08Z</time>
      </trkpt>
      <trkpt lat="44.34193" lon="4.12406">
        <ele>255.85</ele>
        <time>2022-03-17T14:52:22Z</time>
      </trkpt>
      <trkpt lat="44.34194" lon="4.12396">
        <ele>255.37</ele>
        <time>2022-03-17T14:52:34Z</time>
      </trkpt>
      <trkpt lat="44.34197" lon="4.12384">
        <ele>255.37</ele>
        <time>2022-03-17T14:52:48Z</time>
      </trkpt>
      <trkpt lat="44.34197" lon="4.12372">
        <ele>255.37</ele>
        <time>2022-03-17T14:52:59Z</time>
      </trkpt>
      <trkpt lat="44.34198" lon="4.12366">
        <ele>255.37</ele>
        <time>2022-03-17T14:53:11Z</time>
      </trkpt>
      <trkpt lat="44.34196" lon="4.12361">
        <ele>255.37</ele>
        <time>2022-03-17T14:53:24Z</time>
      </trkpt>
      <trkpt lat="44.3419" lon="4.12362">
        <ele>254.89</ele>
        <time>2022-03-17T14:53:35Z</time>
      </trkpt>
      <trkpt lat="44.34183" lon="4.12358">
        <ele>254.41</ele>
        <time>2022-03-17T14:53:48Z</time>
      </trkpt>
      <trkpt lat="44.34183" lon="4.12362">
        <ele>254.89</ele>
        <time>2022-03-17T14:54:04Z</time>
      </trkpt>
      <trkpt lat="44.34185" lon="4.12361">
        <ele>254.89</ele>
        <time>2022-03-17T14:54:16Z</time>
      </trkpt>
      <trkpt lat="44.34185" lon="4.12361">
        <ele>254.89</ele>
        <time>2022-03-17T14:54:18Z</time>
      </trkpt>
      <trkpt lat="44.3418" lon="4.12358">
        <ele>253.93</ele>
        <time>2022-03-17T14:54:31Z</time>
      </trkpt>
      <trkpt lat="44.34175" lon="4.12352">
        <ele>252.96</ele>
        <time>2022-03-17T14:54:42Z</time>
      </trkpt>
      <trkpt lat="44.34169" lon="4.12341">
        <ele>251.52</ele>
        <time>2022-03-17T14:54:55Z</time>
      </trkpt>
      <trkpt lat="44.3416" lon="4.12332">
        <ele>250.56</ele>
        <time>2022-03-17T14:55:07Z</time>
      </trkpt>
      <trkpt lat="44.34155" lon="4.12332">
        <ele>250.56</ele>
        <time>2022-03-17T14:55:12Z</time>
      </trkpt>
      <trkpt lat="44.34151" lon="4.12338">
        <ele>249.6</ele>
        <time>2022-03-17T14:55:18Z</time>
      </trkpt>
      <trkpt lat="44.34151" lon="4.12343">
        <ele>249.12</ele>
        <time>2022-03-17T14:55:22Z</time>
      </trkpt>
      <trkpt lat="44.34145" lon="4.12359">
        <ele>248.64</ele>
        <time>2022-03-17T14:55:37Z</time>
      </trkpt>
      <trkpt lat="44.34144" lon="4.12364">
        <ele>248.64</ele>
        <time>2022-03-17T14:55:52Z</time>
      </trkpt>
      <trkpt lat="44.34145" lon="4.12365">
        <ele>248.16</ele>
        <time>2022-03-17T14:56:05Z</time>
      </trkpt>
      <trkpt lat="44.34145" lon="4.12364">
        <ele>248.16</ele>
        <time>2022-03-17T14:56:23Z</time>
      </trkpt>
      <trkpt lat="44.34145" lon="4.12363">
        <ele>248.16</ele>
        <time>2022-03-17T14:56:45Z</time>
      </trkpt>
      <trkpt lat="44.34146" lon="4.12364">
        <ele>247.68</ele>
        <time>2022-03-17T14:57:08Z</time>
      </trkpt>
      <trkpt lat="44.34147" lon="4.12354">
        <ele>248.64</ele>
        <time>2022-03-17T14:57:18Z</time>
      </trkpt>
      <trkpt lat="44.3415" lon="4.12342">
        <ele>248.64</ele>
        <time>2022-03-17T14:57:29Z</time>
      </trkpt>
      <trkpt lat="44.34153" lon="4.12331">
        <ele>249.6</ele>
        <time>2022-03-17T14:57:41Z</time>
      </trkpt>
      <trkpt lat="44.34155" lon="4.12329">
        <ele>250.08</ele>
        <time>2022-03-17T14:57:45Z</time>
      </trkpt>
      <trkpt lat="44.34158" lon="4.12328">
        <ele>250.56</ele>
        <time>2022-03-17T14:57:52Z</time>
      </trkpt>
      <trkpt lat="44.34163" lon="4.12339">
        <ele>251.52</ele>
        <time>2022-03-17T14:58:05Z</time>
      </trkpt>
      <trkpt lat="44.34163" lon="4.12344">
        <ele>251.52</ele>
        <time>2022-03-17T14:58:20Z</time>
      </trkpt>
      <trkpt lat="44.34168" lon="4.12354">
        <ele>252.96</ele>
        <time>2022-03-17T14:58:34Z</time>
      </trkpt>
      <trkpt lat="44.34173" lon="4.12358">
        <ele>252.96</ele>
        <time>2022-03-17T14:58:50Z</time>
      </trkpt>
      <trkpt lat="44.34179" lon="4.12358">
        <ele>253.44</ele>
        <time>2022-03-17T14:58:59Z</time>
      </trkpt>
      <trkpt lat="44.34193" lon="4.12358">
        <ele>253.93</ele>
        <time>2022-03-17T14:59:13Z</time>
      </trkpt>
      <trkpt lat="44.34191" lon="4.12365">
        <ele>253.93</ele>
        <time>2022-03-17T14:59:26Z</time>
      </trkpt>
      <trkpt lat="44.34189" lon="4.12379">
        <ele>253.93</ele>
        <time>2022-03-17T14:59:39Z</time>
      </trkpt>
      <trkpt lat="44.34187" lon="4.12382">
        <ele>253.93</ele>
        <time>2022-03-17T14:59:43Z</time>
      </trkpt>
      <trkpt lat="44.34189" lon="4.12399">
        <ele>253.44</ele>
        <time>2022-03-17T14:59:55Z</time>
      </trkpt>
      <trkpt lat="44.34188" lon="4.12411">
        <ele>253.44</ele>
        <time>2022-03-17T15:00:04Z</time>
      </trkpt>
      <trkpt lat="44.34187" lon="4.12424">
        <ele>253.44</ele>
        <time>2022-03-17T15:00:15Z</time>
      </trkpt>
      <trkpt lat="44.34187" lon="4.1244">
        <ele>253.44</ele>
        <time>2022-03-17T15:00:25Z</time>
      </trkpt>
      <trkpt lat="44.34187" lon="4.12444">
        <ele>253.44</ele>
        <time>2022-03-17T15:00:27Z</time>
      </trkpt>
      <trkpt lat="44.34186" lon="4.12462">
        <ele>253.44</ele>
        <time>2022-03-17T15:00:40Z</time>
      </trkpt>
      <trkpt lat="44.34185" lon="4.12478">
        <ele>253.44</ele>
        <time>2022-03-17T15:00:52Z</time>
      </trkpt>
      <trkpt lat="44.34184" lon="4.12481">
        <ele>253.44</ele>
        <time>2022-03-17T15:01:06Z</time>
      </trkpt>
      <trkpt lat="44.34183" lon="4.12495">
        <ele>253.44</ele>
        <time>2022-03-17T15:01:19Z</time>
      </trkpt>
      <trkpt lat="44.34181" lon="4.12512">
        <ele>253.44</ele>
        <time>2022-03-17T15:01:33Z</time>
      </trkpt>
      <trkpt lat="44.3418" lon="4.12527">
        <ele>252.96</ele>
        <time>2022-03-17T15:01:47Z</time>
      </trkpt>
      <trkpt lat="44.34178" lon="4.12543">
        <ele>252.96</ele>
        <time>2022-03-17T15:02:00Z</time>
      </trkpt>
      <trkpt lat="44.34177" lon="4.12554">
        <ele>252.96</ele>
        <time>2022-03-17T15:02:11Z</time>
      </trkpt>
      <trkpt lat="44.34175" lon="4.12577">
        <ele>252.96</ele>
        <time>2022-03-17T15:02:28Z</time>
      </trkpt>
      <trkpt lat="44.34175" lon="4.12579">
        <ele>252.96</ele>
        <time>2022-03-17T15:02:29Z</time>
      </trkpt>
      <trkpt lat="44.34172" lon="4.12594">
        <ele>252.96</ele>
        <time>2022-03-17T15:02:42Z</time>
      </trkpt>
      <trkpt lat="44.34171" lon="4.1261">
        <ele>252.96</ele>
        <time>2022-03-17T15:02:57Z</time>
      </trkpt>
      <trkpt lat="44.3417" lon="4.12621">
        <ele>252.48</ele>
        <time>2022-03-17T15:03:11Z</time>
      </trkpt>
      <trkpt lat="44.34167" lon="4.12635">
        <ele>252.96</ele>
        <time>2022-03-17T15:03:25Z</time>
      </trkpt>
      <trkpt lat="44.34165" lon="4.12648">
        <ele>252.96</ele>
        <time>2022-03-17T15:03:37Z</time>
      </trkpt>
      <trkpt lat="44.34168" lon="4.12659">
        <ele>252.96</ele>
        <time>2022-03-17T15:03:52Z</time>
      </trkpt>
      <trkpt lat="44.34169" lon="4.12662">
        <ele>252.96</ele>
        <time>2022-03-17T15:03:55Z</time>
      </trkpt>
      <trkpt lat="44.34173" lon="4.12667">
        <ele>253.44</ele>
        <time>2022-03-17T15:03:59Z</time>
      </trkpt>
      <trkpt lat="44.34177" lon="4.12671">
        <ele>252.96</ele>
        <time>2022-03-17T15:04:05Z</time>
      </trkpt>
      <trkpt lat="44.34186" lon="4.1268">
        <ele>252.96</ele>
        <time>2022-03-17T15:04:18Z</time>
      </trkpt>
      <trkpt lat="44.34192" lon="4.12685">
        <ele>252.48</ele>
        <time>2022-03-17T15:04:30Z</time>
      </trkpt>
      <trkpt lat="44.34197" lon="4.12687">
        <ele>252.48</ele>
        <time>2022-03-17T15:04:41Z</time>
      </trkpt>
      <trkpt lat="44.34203" lon="4.12687">
        <ele>252.96</ele>
        <time>2022-03-17T15:04:52Z</time>
      </trkpt>
      <trkpt lat="44.34221" lon="4.12694">
        <ele>252.96</ele>
        <time>2022-03-17T15:05:07Z</time>
      </trkpt>
      <trkpt lat="44.34233" lon="4.12695">
        <ele>253.44</ele>
        <time>2022-03-17T15:05:19Z</time>
      </trkpt>
      <trkpt lat="44.34246" lon="4.12694">
        <ele>252.96</ele>
        <time>2022-03-17T15:05:32Z</time>
      </trkpt>
      <trkpt lat="44.3426" lon="4.12697">
        <ele>252.96</ele>
        <time>2022-03-17T15:05:47Z</time>
      </trkpt>
      <trkpt lat="44.34266" lon="4.12696">
        <ele>252.96</ele>
        <time>2022-03-17T15:05:58Z</time>
      </trkpt>
      <trkpt lat="44.34273" lon="4.12685">
        <ele>252.96</ele>
        <time>2022-03-17T15:06:12Z</time>
      </trkpt>
      <trkpt lat="44.34273" lon="4.12683">
        <ele>252.96</ele>
        <time>2022-03-17T15:06:14Z</time>
      </trkpt>
      <trkpt lat="44.34284" lon="4.12676">
        <ele>253.44</ele>
        <time>2022-03-17T15:06:29Z</time>
      </trkpt>
      <trkpt lat="44.34291" lon="4.12675">
        <ele>252.96</ele>
        <time>2022-03-17T15:06:42Z</time>
      </trkpt>
      <trkpt lat="44.34305" lon="4.12676">
        <ele>252.96</ele>
        <time>2022-03-17T15:06:58Z</time>
      </trkpt>
      <trkpt lat="44.34315" lon="4.12677">
        <ele>252.96</ele>
        <time>2022-03-17T15:07:12Z</time>
      </trkpt>
      <trkpt lat="44.34328" lon="4.12683">
        <ele>252.96</ele>
        <time>2022-03-17T15:07:25Z</time>
      </trkpt>
      <trkpt lat="44.34331" lon="4.12684">
        <ele>252.96</ele>
        <time>2022-03-17T15:07:29Z</time>
      </trkpt>
      <trkpt lat="44.34337" lon="4.12687">
        <ele>252.96</ele>
        <time>2022-03-17T15:07:35Z</time>
      </trkpt>
      <trkpt lat="44.34341" lon="4.12687">
        <ele>252.96</ele>
        <time>2022-03-17T15:07:40Z</time>
      </trkpt>
      <trkpt lat="44.34346" lon="4.12691">
        <ele>252.96</ele>
        <time>2022-03-17T15:07:43Z</time>
      </trkpt>
      <trkpt lat="44.34352" lon="4.12686">
        <ele>253.44</ele>
        <time>2022-03-17T15:07:55Z</time>
      </trkpt>
      <trkpt lat="44.34362" lon="4.12677">
        <ele>253.44</ele>
        <time>2022-03-17T15:08:09Z</time>
      </trkpt>
      <trkpt lat="44.3437" lon="4.12671">
        <ele>253.44</ele>
        <time>2022-03-17T15:08:16Z</time>
      </trkpt>
      <trkpt lat="44.34381" lon="4.1267">
        <ele>253.44</ele>
        <time>2022-03-17T15:08:29Z</time>
      </trkpt>
      <trkpt lat="44.34387" lon="4.12673">
        <ele>253.44</ele>
        <time>2022-03-17T15:08:39Z</time>
      </trkpt>
      <trkpt lat="44.34391" lon="4.12673">
        <ele>253.44</ele>
        <time>2022-03-17T15:08:42Z</time>
      </trkpt>
      <trkpt lat="44.344" lon="4.12678">
        <ele>253.44</ele>
        <time>2022-03-17T15:08:53Z</time>
      </trkpt>
      <trkpt lat="44.34407" lon="4.1268">
        <ele>253.44</ele>
        <time>2022-03-17T15:09:05Z</time>
      </trkpt>
      <trkpt lat="44.34408" lon="4.12679">
        <ele>253.44</ele>
        <time>2022-03-17T15:09:07Z</time>
      </trkpt>
      <trkpt lat="44.34417" lon="4.12677">
        <ele>253.93</ele>
        <time>2022-03-17T15:09:20Z</time>
      </trkpt>
      <trkpt lat="44.3442" lon="4.12676">
        <ele>254.41</ele>
        <time>2022-03-17T15:09:26Z</time>
      </trkpt>
      <trkpt lat="44.34436" lon="4.12672">
        <ele>254.41</ele>
        <time>2022-03-17T15:09:41Z</time>
      </trkpt>
      <trkpt lat="44.34445" lon="4.12671">
        <ele>253.93</ele>
        <time>2022-03-17T15:09:52Z</time>
      </trkpt>
      <trkpt lat="44.34456" lon="4.12676">
        <ele>253.93</ele>
        <time>2022-03-17T15:10:07Z</time>
      </trkpt>
      <trkpt lat="44.34465" lon="4.12683">
        <ele>254.41</ele>
        <time>2022-03-17T15:10:19Z</time>
      </trkpt>
      <trkpt lat="44.34471" lon="4.12686">
        <ele>254.41</ele>
        <time>2022-03-17T15:10:29Z</time>
      </trkpt>
      <trkpt lat="44.34485" lon="4.12686">
        <ele>254.41</ele>
        <time>2022-03-17T15:10:42Z</time>
      </trkpt>
      <trkpt lat="44.34491" lon="4.12691">
        <ele>254.89</ele>
        <time>2022-03-17T15:10:54Z</time>
      </trkpt>
      <trkpt lat="44.34501" lon="4.12689">
        <ele>255.85</ele>
        <time>2022-03-17T15:11:04Z</time>
      </trkpt>
      <trkpt lat="44.34505" lon="4.12689">
        <ele>255.37</ele>
        <time>2022-03-17T15:11:08Z</time>
      </trkpt>
      <trkpt lat="44.3451" lon="4.12683">
        <ele>255.37</ele>
        <time>2022-03-17T15:11:23Z</time>
      </trkpt>
      <trkpt lat="44.34512" lon="4.12679">
        <ele>255.37</ele>
        <time>2022-03-17T15:11:36Z</time>
      </trkpt>
      <trkpt lat="44.34513" lon="4.12679">
        <ele>255.37</ele>
        <time>2022-03-17T15:11:38Z</time>
      </trkpt>
      <trkpt lat="44.34524" lon="4.12677">
        <ele>255.85</ele>
        <time>2022-03-17T15:11:50Z</time>
      </trkpt>
      <trkpt lat="44.3453" lon="4.12676">
        <ele>255.85</ele>
        <time>2022-03-17T15:12:04Z</time>
      </trkpt>
      <trkpt lat="44.34535" lon="4.12682">
        <ele>256.33</ele>
        <time>2022-03-17T15:12:15Z</time>
      </trkpt>
      <trkpt lat="44.34543" lon="4.12684">
        <ele>256.33</ele>
        <time>2022-03-17T15:12:27Z</time>
      </trkpt>
      <trkpt lat="44.34562" lon="4.12693">
        <ele>256.33</ele>
        <time>2022-03-17T15:12:40Z</time>
      </trkpt>
      <trkpt lat="44.34577" lon="4.12696">
        <ele>256.81</ele>
        <time>2022-03-17T15:12:51Z</time>
      </trkpt>
      <trkpt lat="44.34588" lon="4.12696">
        <ele>257.29</ele>
        <time>2022-03-17T15:13:03Z</time>
      </trkpt>
      <trkpt lat="44.34589" lon="4.12695">
        <ele>257.77</ele>
        <time>2022-03-17T15:13:04Z</time>
      </trkpt>
      <trkpt lat="44.34591" lon="4.12696">
        <ele>257.29</ele>
        <time>2022-03-17T15:13:06Z</time>
      </trkpt>
      <trkpt lat="44.34603" lon="4.12693">
        <ele>257.29</ele>
        <time>2022-03-17T15:13:17Z</time>
      </trkpt>
      <trkpt lat="44.34606" lon="4.12692">
        <ele>257.29</ele>
        <time>2022-03-17T15:13:19Z</time>
      </trkpt>
      <trkpt lat="44.34617" lon="4.12691">
        <ele>257.77</ele>
        <time>2022-03-17T15:13:31Z</time>
      </trkpt>
      <trkpt lat="44.34627" lon="4.12695">
        <ele>257.77</ele>
        <time>2022-03-17T15:13:44Z</time>
      </trkpt>
      <trkpt lat="44.34628" lon="4.12695">
        <ele>257.77</ele>
        <time>2022-03-17T15:13:45Z</time>
      </trkpt>
      <trkpt lat="44.34637" lon="4.127">
        <ele>257.77</ele>
        <time>2022-03-17T15:13:56Z</time>
      </trkpt>
      <trkpt lat="44.34645" lon="4.12709">
        <ele>258.25</ele>
        <time>2022-03-17T15:14:08Z</time>
      </trkpt>
      <trkpt lat="44.34651" lon="4.12709">
        <ele>258.73</ele>
        <time>2022-03-17T15:14:21Z</time>
      </trkpt>
      <trkpt lat="44.34659" lon="4.12705">
        <ele>259.21</ele>
        <time>2022-03-17T15:14:34Z</time>
      </trkpt>
      <trkpt lat="44.34679" lon="4.12696">
        <ele>259.69</ele>
        <time>2022-03-17T15:14:49Z</time>
      </trkpt>
      <trkpt lat="44.34688" lon="4.12699">
        <ele>259.69</ele>
        <time>2022-03-17T15:15:01Z</time>
      </trkpt>
      <trkpt lat="44.34688" lon="4.12699">
        <ele>259.69</ele>
        <time>2022-03-17T15:15:02Z</time>
      </trkpt>
      <trkpt lat="44.34705" lon="4.12712">
        <ele>260.17</ele>
        <time>2022-03-17T15:15:17Z</time>
      </trkpt>
      <trkpt lat="44.34713" lon="4.12717">
        <ele>260.65</ele>
        <time>2022-03-17T15:15:30Z</time>
      </trkpt>
      <trkpt lat="44.3472" lon="4.12717">
        <ele>260.65</ele>
        <time>2022-03-17T15:15:40Z</time>
      </trkpt>
      <trkpt lat="44.34732" lon="4.12718">
        <ele>261.14</ele>
        <time>2022-03-17T15:15:52Z</time>
      </trkpt>
      <trkpt lat="44.34747" lon="4.12722">
        <ele>261.62</ele>
        <time>2022-03-17T15:16:08Z</time>
      </trkpt>
      <trkpt lat="44.34749" lon="4.12724">
        <ele>261.62</ele>
        <time>2022-03-17T15:16:10Z</time>
      </trkpt>
      <trkpt lat="44.34759" lon="4.12726">
        <ele>261.62</ele>
        <time>2022-03-17T15:16:22Z</time>
      </trkpt>
      <trkpt lat="44.34766" lon="4.12733">
        <ele>261.62</ele>
        <time>2022-03-17T15:16:33Z</time>
      </trkpt>
      <trkpt lat="44.34778" lon="4.12735">
        <ele>261.62</ele>
        <time>2022-03-17T15:16:43Z</time>
      </trkpt>
      <trkpt lat="44.3478" lon="4.12738">
        <ele>261.62</ele>
        <time>2022-03-17T15:16:56Z</time>
      </trkpt>
      <trkpt lat="44.34788" lon="4.12738">
        <ele>262.1</ele>
        <time>2022-03-17T15:17:12Z</time>
      </trkpt>
      <trkpt lat="44.34795" lon="4.12735">
        <ele>262.1</ele>
        <time>2022-03-17T15:17:34Z</time>
      </trkpt>
      <trkpt lat="44.34798" lon="4.12734">
        <ele>262.58</ele>
        <time>2022-03-17T15:17:42Z</time>
      </trkpt>
      <trkpt lat="44.34802" lon="4.12733">
        <ele>262.58</ele>
        <time>2022-03-17T15:17:47Z</time>
      </trkpt>
      <trkpt lat="44.34809" lon="4.12728">
        <ele>263.06</ele>
        <time>2022-03-17T15:18:01Z</time>
      </trkpt>
      <trkpt lat="44.34814" lon="4.12727">
        <ele>263.54</ele>
        <time>2022-03-17T15:18:13Z</time>
      </trkpt>
      <trkpt lat="44.3482" lon="4.12723">
        <ele>263.54</ele>
        <time>2022-03-17T15:18:26Z</time>
      </trkpt>
      <trkpt lat="44.34832" lon="4.12721">
        <ele>264.02</ele>
        <time>2022-03-17T15:18:35Z</time>
      </trkpt>
      <trkpt lat="44.3485" lon="4.12723">
        <ele>264.02</ele>
        <time>2022-03-17T15:18:46Z</time>
      </trkpt>
      <trkpt lat="44.34865" lon="4.12732">
        <ele>264.02</ele>
        <time>2022-03-17T15:19:01Z</time>
      </trkpt>
      <trkpt lat="44.34878" lon="4.12753">
        <ele>264.02</ele>
        <time>2022-03-17T15:19:08Z</time>
      </trkpt>
      <trkpt lat="44.3489" lon="4.12758">
        <ele>264.5</ele>
        <time>2022-03-17T15:19:20Z</time>
      </trkpt>
      <trkpt lat="44.34891" lon="4.1276">
        <ele>264.5</ele>
        <time>2022-03-17T15:19:23Z</time>
      </trkpt>
      <trkpt lat="44.34895" lon="4.1276">
        <ele>264.5</ele>
        <time>2022-03-17T15:19:26Z</time>
      </trkpt>
      <trkpt lat="44.34903" lon="4.1276">
        <ele>264.5</ele>
        <time>2022-03-17T15:19:35Z</time>
      </trkpt>
      <trkpt lat="44.34913" lon="4.12758">
        <ele>264.5</ele>
        <time>2022-03-17T15:19:49Z</time>
      </trkpt>
      <trkpt lat="44.34923" lon="4.12759">
        <ele>264.02</ele>
        <time>2022-03-17T15:20:02Z</time>
      </trkpt>
      <trkpt lat="44.34933" lon="4.12763">
        <ele>264.5</ele>
        <time>2022-03-17T15:20:11Z</time>
      </trkpt>
      <trkpt lat="44.34944" lon="4.12763">
        <ele>264.02</ele>
        <time>2022-03-17T15:20:23Z</time>
      </trkpt>
      <trkpt lat="44.34953" lon="4.12765">
        <ele>264.02</ele>
        <time>2022-03-17T15:20:34Z</time>
      </trkpt>
      <trkpt lat="44.34964" lon="4.12766">
        <ele>263.06</ele>
        <time>2022-03-17T15:20:44Z</time>
      </trkpt>
      <trkpt lat="44.34978" lon="4.12769">
        <ele>263.06</ele>
        <time>2022-03-17T15:20:58Z</time>
      </trkpt>
      <trkpt lat="44.34981" lon="4.1277">
        <ele>263.06</ele>
        <time>2022-03-17T15:21:01Z</time>
      </trkpt>
      <trkpt lat="44.34994" lon="4.12774">
        <ele>262.58</ele>
        <time>2022-03-17T15:21:15Z</time>
      </trkpt>
      <trkpt lat="44.35006" lon="4.12782">
        <ele>262.58</ele>
        <time>2022-03-17T15:21:23Z</time>
      </trkpt>
      <trkpt lat="44.3501" lon="4.12773">
        <ele>261.62</ele>
        <time>2022-03-17T15:21:35Z</time>
      </trkpt>
      <trkpt lat="44.35014" lon="4.12754">
        <ele>260.65</ele>
        <time>2022-03-17T15:21:47Z</time>
      </trkpt>
      <trkpt lat="44.35011" lon="4.12748">
        <ele>260.65</ele>
        <time>2022-03-17T15:21:57Z</time>
      </trkpt>
      <trkpt lat="44.35011" lon="4.12747">
        <ele>260.65</ele>
        <time>2022-03-17T15:21:58Z</time>
      </trkpt>
      <trkpt lat="44.35009" lon="4.12744">
        <ele>259.69</ele>
        <time>2022-03-17T15:22:13Z</time>
      </trkpt>
      <trkpt lat="44.35009" lon="4.12739">
        <ele>259.21</ele>
        <time>2022-03-17T15:22:19Z</time>
      </trkpt>
      <trkpt lat="44.3501" lon="4.12737">
        <ele>259.21</ele>
        <time>2022-03-17T15:22:21Z</time>
      </trkpt>
      <trkpt lat="44.35009" lon="4.12732">
        <ele>258.73</ele>
        <time>2022-03-17T15:22:25Z</time>
      </trkpt>
      <trkpt lat="44.3501" lon="4.12728">
        <ele>258.25</ele>
        <time>2022-03-17T15:22:28Z</time>
      </trkpt>
      <trkpt lat="44.35015" lon="4.12716">
        <ele>257.29</ele>
        <time>2022-03-17T15:22:41Z</time>
      </trkpt>
      <trkpt lat="44.35019" lon="4.12707">
        <ele>256.81</ele>
        <time>2022-03-17T15:22:53Z</time>
      </trkpt>
      <trkpt lat="44.35024" lon="4.12704">
        <ele>256.33</ele>
        <time>2022-03-17T15:22:59Z</time>
      </trkpt>
      <trkpt lat="44.35028" lon="4.12701">
        <ele>255.85</ele>
        <time>2022-03-17T15:23:02Z</time>
      </trkpt>
      <trkpt lat="44.35036" lon="4.12696">
        <ele>255.37</ele>
        <time>2022-03-17T15:23:11Z</time>
      </trkpt>
      <trkpt lat="44.3505" lon="4.12687">
        <ele>253.93</ele>
        <time>2022-03-17T15:23:23Z</time>
      </trkpt>
      <trkpt lat="44.35052" lon="4.12686">
        <ele>253.93</ele>
        <time>2022-03-17T15:23:25Z</time>
      </trkpt>
      <trkpt lat="44.35054" lon="4.12685">
        <ele>253.93</ele>
        <time>2022-03-17T15:23:27Z</time>
      </trkpt>
      <trkpt lat="44.35059" lon="4.12679">
        <ele>253.44</ele>
        <time>2022-03-17T15:23:34Z</time>
      </trkpt>
      <trkpt lat="44.35067" lon="4.12673">
        <ele>252.96</ele>
        <time>2022-03-17T15:23:46Z</time>
      </trkpt>
      <trkpt lat="44.35068" lon="4.12673">
        <ele>252.96</ele>
        <time>2022-03-17T15:23:47Z</time>
      </trkpt>
      <trkpt lat="44.35072" lon="4.12673">
        <ele>252.96</ele>
        <time>2022-03-17T15:23:52Z</time>
      </trkpt>
      <trkpt lat="44.35077" lon="4.12679">
        <ele>252.48</ele>
        <time>2022-03-17T15:24:03Z</time>
      </trkpt>
      <trkpt lat="44.35077" lon="4.12678">
        <ele>252.96</ele>
        <time>2022-03-17T15:24:17Z</time>
      </trkpt>
      <trkpt lat="44.35078" lon="4.12674">
        <ele>252.96</ele>
        <time>2022-03-17T15:24:30Z</time>
      </trkpt>
      <trkpt lat="44.35081" lon="4.12672">
        <ele>252.96</ele>
        <time>2022-03-17T15:24:41Z</time>
      </trkpt>
      <trkpt lat="44.35083" lon="4.12672">
        <ele>253.44</ele>
        <time>2022-03-17T15:24:55Z</time>
      </trkpt>
      <trkpt lat="44.35086" lon="4.12675">
        <ele>254.41</ele>
        <time>2022-03-17T15:25:07Z</time>
      </trkpt>
      <trkpt lat="44.35088" lon="4.12676">
        <ele>254.89</ele>
        <time>2022-03-17T15:25:12Z</time>
      </trkpt>
      <trkpt lat="44.35093" lon="4.12678">
        <ele>254.89</ele>
        <time>2022-03-17T15:25:15Z</time>
      </trkpt>
      <trkpt lat="44.35096" lon="4.12681">
        <ele>254.89</ele>
        <time>2022-03-17T15:25:18Z</time>
      </trkpt>
      <trkpt lat="44.35106" lon="4.12687">
        <ele>255.85</ele>
        <time>2022-03-17T15:25:30Z</time>
      </trkpt>
      <trkpt lat="44.35113" lon="4.12693">
        <ele>256.33</ele>
        <time>2022-03-17T15:25:41Z</time>
      </trkpt>
      <trkpt lat="44.35119" lon="4.12698">
        <ele>257.29</ele>
        <time>2022-03-17T15:25:53Z</time>
      </trkpt>
      <trkpt lat="44.35126" lon="4.12702">
        <ele>258.25</ele>
        <time>2022-03-17T15:26:01Z</time>
      </trkpt>
      <trkpt lat="44.3514" lon="4.12717">
        <ele>258.73</ele>
        <time>2022-03-17T15:26:14Z</time>
      </trkpt>
      <trkpt lat="44.35149" lon="4.12719">
        <ele>259.21</ele>
        <time>2022-03-17T15:26:26Z</time>
      </trkpt>
      <trkpt lat="44.35151" lon="4.12721">
        <ele>259.21</ele>
        <time>2022-03-17T15:26:35Z</time>
      </trkpt>
      <trkpt lat="44.3516" lon="4.1272">
        <ele>259.69</ele>
        <time>2022-03-17T15:26:48Z</time>
      </trkpt>
      <trkpt lat="44.35163" lon="4.1272">
        <ele>259.69</ele>
        <time>2022-03-17T15:26:55Z</time>
      </trkpt>
      <trkpt lat="44.35173" lon="4.12712">
        <ele>260.17</ele>
        <time>2022-03-17T15:27:06Z</time>
      </trkpt>
      <trkpt lat="44.35178" lon="4.12708">
        <ele>260.17</ele>
        <time>2022-03-17T15:27:18Z</time>
      </trkpt>
      <trkpt lat="44.35179" lon="4.12707">
        <ele>260.17</ele>
        <time>2022-03-17T15:27:22Z</time>
      </trkpt>
      <trkpt lat="44.35183" lon="4.12704">
        <ele>260.65</ele>
        <time>2022-03-17T15:27:28Z</time>
      </trkpt>
      <trkpt lat="44.35187" lon="4.12701">
        <ele>261.14</ele>
        <time>2022-03-17T15:27:33Z</time>
      </trkpt>
      <trkpt lat="44.35196" lon="4.12693">
        <ele>261.62</ele>
        <time>2022-03-17T15:27:43Z</time>
      </trkpt>
      <trkpt lat="44.352" lon="4.12691">
        <ele>262.1</ele>
        <time>2022-03-17T15:27:47Z</time>
      </trkpt>
      <trkpt lat="44.35202" lon="4.12689">
        <ele>261.62</ele>
        <time>2022-03-17T15:27:59Z</time>
      </trkpt>
      <trkpt lat="44.35201" lon="4.12687">
        <ele>262.1</ele>
        <time>2022-03-17T15:28:18Z</time>
      </trkpt>
      <trkpt lat="44.35202" lon="4.12686">
        <ele>261.62</ele>
        <time>2022-03-17T15:28:42Z</time>
      </trkpt>
      <trkpt lat="44.35205" lon="4.12684">
        <ele>262.1</ele>
        <time>2022-03-17T15:28:58Z</time>
      </trkpt>
      <trkpt lat="44.3521" lon="4.12681">
        <ele>262.58</ele>
        <time>2022-03-17T15:29:09Z</time>
      </trkpt>
      <trkpt lat="44.35213" lon="4.1268">
        <ele>262.1</ele>
        <time>2022-03-17T15:29:15Z</time>
      </trkpt>
      <trkpt lat="44.35215" lon="4.12678">
        <ele>262.1</ele>
        <time>2022-03-17T15:29:17Z</time>
      </trkpt>
      <trkpt lat="44.35219" lon="4.12675">
        <ele>265.46</ele>
        <time>2022-03-17T15:29:20Z</time>
      </trkpt>
      <trkpt lat="44.3523" lon="4.12674">
        <ele>263.06</ele>
        <time>2022-03-17T15:29:33Z</time>
      </trkpt>
      <trkpt lat="44.35231" lon="4.12675">
        <ele>263.06</ele>
        <time>2022-03-17T15:29:35Z</time>
      </trkpt>
      <trkpt lat="44.35238" lon="4.12672">
        <ele>263.54</ele>
        <time>2022-03-17T15:29:46Z</time>
      </trkpt>
      <trkpt lat="44.3524" lon="4.12671">
        <ele>263.54</ele>
        <time>2022-03-17T15:29:48Z</time>
      </trkpt>
      <trkpt lat="44.3525" lon="4.12668">
        <ele>264.5</ele>
        <time>2022-03-17T15:29:59Z</time>
      </trkpt>
      <trkpt lat="44.35252" lon="4.12669">
        <ele>264.5</ele>
        <time>2022-03-17T15:30:01Z</time>
      </trkpt>
      <trkpt lat="44.35263" lon="4.12665">
        <ele>264.5</ele>
        <time>2022-03-17T15:30:12Z</time>
      </trkpt>
      <trkpt lat="44.35271" lon="4.12664">
        <ele>265.46</ele>
        <time>2022-03-17T15:30:23Z</time>
      </trkpt>
      <trkpt lat="44.35277" lon="4.12662">
        <ele>265.94</ele>
        <time>2022-03-17T15:30:36Z</time>
      </trkpt>
      <trkpt lat="44.35284" lon="4.12659">
        <ele>265.94</ele>
        <time>2022-03-17T15:30:48Z</time>
      </trkpt>
      <trkpt lat="44.35285" lon="4.12658">
        <ele>265.94</ele>
        <time>2022-03-17T15:30:51Z</time>
      </trkpt>
      <trkpt lat="44.35294" lon="4.12655">
        <ele>266.42</ele>
        <time>2022-03-17T15:31:04Z</time>
      </trkpt>
      <trkpt lat="44.35306" lon="4.12649">
        <ele>266.9</ele>
        <time>2022-03-17T15:31:14Z</time>
      </trkpt>
      <trkpt lat="44.35312" lon="4.12645">
        <ele>266.9</ele>
        <time>2022-03-17T15:31:21Z</time>
      </trkpt>
      <trkpt lat="44.35315" lon="4.12644">
        <ele>266.9</ele>
        <time>2022-03-17T15:31:24Z</time>
      </trkpt>
      <trkpt lat="44.35318" lon="4.1264">
        <ele>266.9</ele>
        <time>2022-03-17T15:31:27Z</time>
      </trkpt>
      <trkpt lat="44.35321" lon="4.12637">
        <ele>266.9</ele>
        <time>2022-03-17T15:31:30Z</time>
      </trkpt>
      <trkpt lat="44.35335" lon="4.12632">
        <ele>266.9</ele>
        <time>2022-03-17T15:31:43Z</time>
      </trkpt>
      <trkpt lat="44.35348" lon="4.12631">
        <ele>266.9</ele>
        <time>2022-03-17T15:31:55Z</time>
      </trkpt>
      <trkpt lat="44.3535" lon="4.12631">
        <ele>266.9</ele>
        <time>2022-03-17T15:31:57Z</time>
      </trkpt>
      <trkpt lat="44.35364" lon="4.12635">
        <ele>267.38</ele>
        <time>2022-03-17T15:32:12Z</time>
      </trkpt>
      <trkpt lat="44.35375" lon="4.12641">
        <ele>267.38</ele>
        <time>2022-03-17T15:32:24Z</time>
      </trkpt>
      <trkpt lat="44.35389" lon="4.12646">
        <ele>267.86</ele>
        <time>2022-03-17T15:32:38Z</time>
      </trkpt>
      <trkpt lat="44.35391" lon="4.12646">
        <ele>267.86</ele>
        <time>2022-03-17T15:32:40Z</time>
      </trkpt>
      <trkpt lat="44.354" lon="4.12649">
        <ele>267.86</ele>
        <time>2022-03-17T15:32:49Z</time>
      </trkpt>
      <trkpt lat="44.35411" lon="4.12653">
        <ele>267.86</ele>
        <time>2022-03-17T15:33:04Z</time>
      </trkpt>
      <trkpt lat="44.3542" lon="4.1265">
        <ele>268.35</ele>
        <time>2022-03-17T15:33:14Z</time>
      </trkpt>
      <trkpt lat="44.35433" lon="4.12646">
        <ele>267.86</ele>
        <time>2022-03-17T15:33:27Z</time>
      </trkpt>
      <trkpt lat="44.35436" lon="4.12646">
        <ele>267.86</ele>
        <time>2022-03-17T15:33:30Z</time>
      </trkpt>
      <trkpt lat="44.35442" lon="4.12645">
        <ele>268.35</ele>
        <time>2022-03-17T15:33:40Z</time>
      </trkpt>
      <trkpt lat="44.35444" lon="4.12645">
        <ele>268.35</ele>
        <time>2022-03-17T15:33:43Z</time>
      </trkpt>
      <trkpt lat="44.35454" lon="4.12644">
        <ele>268.35</ele>
        <time>2022-03-17T15:33:55Z</time>
      </trkpt>
      <trkpt lat="44.3547" lon="4.12639">
        <ele>268.35</ele>
        <time>2022-03-17T15:34:07Z</time>
      </trkpt>
      <trkpt lat="44.35476" lon="4.12637">
        <ele>268.35</ele>
        <time>2022-03-17T15:34:11Z</time>
      </trkpt>
      <trkpt lat="44.35485" lon="4.12633">
        <ele>268.35</ele>
        <time>2022-03-17T15:34:19Z</time>
      </trkpt>
      <trkpt lat="44.35493" lon="4.12629">
        <ele>268.83</ele>
        <time>2022-03-17T15:34:31Z</time>
      </trkpt>
      <trkpt lat="44.35494" lon="4.12629">
        <ele>268.83</ele>
        <time>2022-03-17T15:34:32Z</time>
      </trkpt>
      <trkpt lat="44.35496" lon="4.12628">
        <ele>268.83</ele>
        <time>2022-03-17T15:34:34Z</time>
      </trkpt>
      <trkpt lat="44.35508" lon="4.12618">
        <ele>268.83</ele>
        <time>2022-03-17T15:34:47Z</time>
      </trkpt>
      <trkpt lat="44.35516" lon="4.12612">
        <ele>268.35</ele>
        <time>2022-03-17T15:34:57Z</time>
      </trkpt>
      <trkpt lat="44.35524" lon="4.12608">
        <ele>268.83</ele>
        <time>2022-03-17T15:35:08Z</time>
      </trkpt>
      <trkpt lat="44.35528" lon="4.12605">
        <ele>268.83</ele>
        <time>2022-03-17T15:35:14Z</time>
      </trkpt>
      <trkpt lat="44.35541" lon="4.12595">
        <ele>268.83</ele>
        <time>2022-03-17T15:35:27Z</time>
      </trkpt>
      <trkpt lat="44.35551" lon="4.12592">
        <ele>268.35</ele>
        <time>2022-03-17T15:35:42Z</time>
      </trkpt>
      <trkpt lat="44.35561" lon="4.12585">
        <ele>268.35</ele>
        <time>2022-03-17T15:35:53Z</time>
      </trkpt>
      <trkpt lat="44.35571" lon="4.12583">
        <ele>268.35</ele>
        <time>2022-03-17T15:36:05Z</time>
      </trkpt>
      <trkpt lat="44.35574" lon="4.12581">
        <ele>268.35</ele>
        <time>2022-03-17T15:36:08Z</time>
      </trkpt>
      <trkpt lat="44.35585" lon="4.12574">
        <ele>268.35</ele>
        <time>2022-03-17T15:36:21Z</time>
      </trkpt>
      <trkpt lat="44.35593" lon="4.12567">
        <ele>268.35</ele>
        <time>2022-03-17T15:36:32Z</time>
      </trkpt>
      <trkpt lat="44.35598" lon="4.12567">
        <ele>268.35</ele>
        <time>2022-03-17T15:36:45Z</time>
      </trkpt>
      <trkpt lat="44.35601" lon="4.12565">
        <ele>268.83</ele>
        <time>2022-03-17T15:36:52Z</time>
      </trkpt>
      <trkpt lat="44.35614" lon="4.12562">
        <ele>268.83</ele>
        <time>2022-03-17T15:37:05Z</time>
      </trkpt>
      <trkpt lat="44.35616" lon="4.12559">
        <ele>268.83</ele>
        <time>2022-03-17T15:37:10Z</time>
      </trkpt>
      <trkpt lat="44.35624" lon="4.12549">
        <ele>268.35</ele>
        <time>2022-03-17T15:37:21Z</time>
      </trkpt>
      <trkpt lat="44.35632" lon="4.1254">
        <ele>268.35</ele>
        <time>2022-03-17T15:37:31Z</time>
      </trkpt>
      <trkpt lat="44.35646" lon="4.12533">
        <ele>268.83</ele>
        <time>2022-03-17T15:37:41Z</time>
      </trkpt>
      <trkpt lat="44.35661" lon="4.12529">
        <ele>268.83</ele>
        <time>2022-03-17T15:37:56Z</time>
      </trkpt>
      <trkpt lat="44.35671" lon="4.12523">
        <ele>268.83</ele>
        <time>2022-03-17T15:38:06Z</time>
      </trkpt>
      <trkpt lat="44.35682" lon="4.12514">
        <ele>268.83</ele>
        <time>2022-03-17T15:38:19Z</time>
      </trkpt>
      <trkpt lat="44.35685" lon="4.12512">
        <ele>264.98</ele>
        <time>2022-03-17T15:38:22Z</time>
      </trkpt>
      <trkpt lat="44.35686" lon="4.12511">
        <ele>275.56</ele>
        <time>2022-03-17T15:38:23Z</time>
      </trkpt>
      <trkpt lat="44.35687" lon="4.12511">
        <ele>269.31</ele>
        <time>2022-03-17T15:38:24Z</time>
      </trkpt>
      <trkpt lat="44.35691" lon="4.12506">
        <ele>268.83</ele>
        <time>2022-03-17T15:38:36Z</time>
      </trkpt>
      <trkpt lat="44.35698" lon="4.12499">
        <ele>268.35</ele>
        <time>2022-03-17T15:38:46Z</time>
      </trkpt>
      <trkpt lat="44.35704" lon="4.12492">
        <ele>268.35</ele>
        <time>2022-03-17T15:38:56Z</time>
      </trkpt>
      <trkpt lat="44.35708" lon="4.12486">
        <ele>268.83</ele>
        <time>2022-03-17T15:39:01Z</time>
      </trkpt>
      <trkpt lat="44.35715" lon="4.12478">
        <ele>268.83</ele>
        <time>2022-03-17T15:39:12Z</time>
      </trkpt>
      <trkpt lat="44.35717" lon="4.12478">
        <ele>269.31</ele>
        <time>2022-03-17T15:39:22Z</time>
      </trkpt>
      <trkpt lat="44.35716" lon="4.12479">
        <ele>267.86</ele>
        <time>2022-03-17T15:39:35Z</time>
      </trkpt>
      <trkpt lat="44.3572" lon="4.12481">
        <ele>266.9</ele>
        <time>2022-03-17T15:39:50Z</time>
      </trkpt>
      <trkpt lat="44.35721" lon="4.12479">
        <ele>266.42</ele>
        <time>2022-03-17T15:40:07Z</time>
      </trkpt>
      <trkpt lat="44.35727" lon="4.1248">
        <ele>265.46</ele>
        <time>2022-03-17T15:40:17Z</time>
      </trkpt>
      <trkpt lat="44.35728" lon="4.12477">
        <ele>265.94</ele>
        <time>2022-03-17T15:40:30Z</time>
      </trkpt>
      <trkpt lat="44.35729" lon="4.12474">
        <ele>265.46</ele>
        <time>2022-03-17T15:40:51Z</time>
      </trkpt>
      <trkpt lat="44.35733" lon="4.12475">
        <ele>265.46</ele>
        <time>2022-03-17T15:41:20Z</time>
      </trkpt>
      <trkpt lat="44.35736" lon="4.12475">
        <ele>265.46</ele>
        <time>2022-03-17T15:41:40Z</time>
      </trkpt>
      <trkpt lat="44.35736" lon="4.12474">
        <ele>265.46</ele>
        <time>2022-03-17T15:41:58Z</time>
      </trkpt>
      <trkpt lat="44.35736" lon="4.12474">
        <ele>264.98</ele>
        <time>2022-03-17T15:42:27Z</time>
      </trkpt>
      <trkpt lat="44.35736" lon="4.12472">
        <ele>264.98</ele>
        <time>2022-03-17T15:42:50Z</time>
      </trkpt>
      <trkpt lat="44.35735" lon="4.12471">
        <ele>264.98</ele>
        <time>2022-03-17T15:43:20Z</time>
      </trkpt>
      <trkpt lat="44.35736" lon="4.12471">
        <ele>264.98</ele>
        <time>2022-03-17T15:43:39Z</time>
      </trkpt>
      <trkpt lat="44.35736" lon="4.12479">
        <ele>265.94</ele>
        <time>2022-03-17T15:43:49Z</time>
      </trkpt>
      <trkpt lat="44.35734" lon="4.12492">
        <ele>266.9</ele>
        <time>2022-03-17T15:44:03Z</time>
      </trkpt>
      <trkpt lat="44.35733" lon="4.12497">
        <ele>267.38</ele>
        <time>2022-03-17T15:44:15Z</time>
      </trkpt>
      <trkpt lat="44.35733" lon="4.12498">
        <ele>267.86</ele>
        <time>2022-03-17T15:44:26Z</time>
      </trkpt>
      <trkpt lat="44.3573" lon="4.12502">
        <ele>268.35</ele>
        <time>2022-03-17T15:44:39Z</time>
      </trkpt>
      <trkpt lat="44.35725" lon="4.12509">
        <ele>268.83</ele>
        <time>2022-03-17T15:44:51Z</time>
      </trkpt>
      <trkpt lat="44.35721" lon="4.12513">
        <ele>268.35</ele>
        <time>2022-03-17T15:45:02Z</time>
      </trkpt>
      <trkpt lat="44.35717" lon="4.12518">
        <ele>268.35</ele>
        <time>2022-03-17T15:45:13Z</time>
      </trkpt>
      <trkpt lat="44.35707" lon="4.12523">
        <ele>267.86</ele>
        <time>2022-03-17T15:45:26Z</time>
      </trkpt>
      <trkpt lat="44.35704" lon="4.12525">
        <ele>267.38</ele>
        <time>2022-03-17T15:45:30Z</time>
      </trkpt>
      <trkpt lat="44.357" lon="4.12529">
        <ele>267.38</ele>
        <time>2022-03-17T15:45:38Z</time>
      </trkpt>
      <trkpt lat="44.35697" lon="4.12534">
        <ele>267.38</ele>
        <time>2022-03-17T15:45:49Z</time>
      </trkpt>
      <trkpt lat="44.35691" lon="4.1254">
        <ele>267.38</ele>
        <time>2022-03-17T15:45:57Z</time>
      </trkpt>
      <trkpt lat="44.35688" lon="4.12545">
        <ele>267.86</ele>
        <time>2022-03-17T15:46:03Z</time>
      </trkpt>
      <trkpt lat="44.35681" lon="4.12554">
        <ele>267.86</ele>
        <time>2022-03-17T15:46:15Z</time>
      </trkpt>
      <trkpt lat="44.35675" lon="4.12565">
        <ele>267.86</ele>
        <time>2022-03-17T15:46:27Z</time>
      </trkpt>
      <trkpt lat="44.3567" lon="4.12574">
        <ele>268.35</ele>
        <time>2022-03-17T15:46:38Z</time>
      </trkpt>
      <trkpt lat="44.35667" lon="4.12581">
        <ele>268.35</ele>
        <time>2022-03-17T15:46:53Z</time>
      </trkpt>
      <trkpt lat="44.35664" lon="4.12591">
        <ele>268.35</ele>
        <time>2022-03-17T15:47:04Z</time>
      </trkpt>
      <trkpt lat="44.35663" lon="4.12591">
        <ele>268.83</ele>
        <time>2022-03-17T15:47:07Z</time>
      </trkpt>
      <trkpt lat="44.35658" lon="4.12595">
        <ele>268.83</ele>
        <time>2022-03-17T15:47:15Z</time>
      </trkpt>
      <trkpt lat="44.35649" lon="4.12605">
        <ele>268.83</ele>
        <time>2022-03-17T15:47:28Z</time>
      </trkpt>
      <trkpt lat="44.3564" lon="4.12611">
        <ele>269.31</ele>
        <time>2022-03-17T15:47:41Z</time>
      </trkpt>
      <trkpt lat="44.35635" lon="4.12618">
        <ele>269.79</ele>
        <time>2022-03-17T15:47:53Z</time>
      </trkpt>
      <trkpt lat="44.35629" lon="4.12624">
        <ele>270.27</ele>
        <time>2022-03-17T15:48:03Z</time>
      </trkpt>
      <trkpt lat="44.35624" lon="4.12634">
        <ele>270.75</ele>
        <time>2022-03-17T15:48:15Z</time>
      </trkpt>
      <trkpt lat="44.35618" lon="4.12643">
        <ele>270.75</ele>
        <time>2022-03-17T15:48:27Z</time>
      </trkpt>
      <trkpt lat="44.35614" lon="4.12652">
        <ele>271.23</ele>
        <time>2022-03-17T15:48:37Z</time>
      </trkpt>
      <trkpt lat="44.35612" lon="4.12669">
        <ele>271.71</ele>
        <time>2022-03-17T15:48:50Z</time>
      </trkpt>
      <trkpt lat="44.35615" lon="4.12685">
        <ele>272.19</ele>
        <time>2022-03-17T15:49:05Z</time>
      </trkpt>
      <trkpt lat="44.35621" lon="4.12694">
        <ele>272.67</ele>
        <time>2022-03-17T15:49:14Z</time>
      </trkpt>
      <trkpt lat="44.35627" lon="4.127">
        <ele>273.15</ele>
        <time>2022-03-17T15:49:22Z</time>
      </trkpt>
      <trkpt lat="44.35631" lon="4.12703">
        <ele>273.15</ele>
        <time>2022-03-17T15:49:27Z</time>
      </trkpt>
      <trkpt lat="44.35638" lon="4.12709">
        <ele>272.67</ele>
        <time>2022-03-17T15:49:38Z</time>
      </trkpt>
      <trkpt lat="44.35641" lon="4.12713">
        <ele>272.67</ele>
        <time>2022-03-17T15:49:42Z</time>
      </trkpt>
      <trkpt lat="44.35647" lon="4.12724">
        <ele>273.15</ele>
        <time>2022-03-17T15:49:54Z</time>
      </trkpt>
      <trkpt lat="44.35647" lon="4.12726">
        <ele>273.63</ele>
        <time>2022-03-17T15:49:56Z</time>
      </trkpt>
      <trkpt lat="44.35647" lon="4.12737">
        <ele>273.63</ele>
        <time>2022-03-17T15:50:07Z</time>
      </trkpt>
      <trkpt lat="44.35651" lon="4.12748">
        <ele>274.11</ele>
        <time>2022-03-17T15:50:18Z</time>
      </trkpt>
      <trkpt lat="44.35657" lon="4.12759">
        <ele>274.59</ele>
        <time>2022-03-17T15:50:29Z</time>
      </trkpt>
      <trkpt lat="44.35661" lon="4.12768">
        <ele>274.59</ele>
        <time>2022-03-17T15:50:43Z</time>
      </trkpt>
      <trkpt lat="44.35663" lon="4.12773">
        <ele>275.07</ele>
        <time>2022-03-17T15:50:54Z</time>
      </trkpt>
      <trkpt lat="44.35666" lon="4.12782">
        <ele>274.59</ele>
        <time>2022-03-17T15:51:06Z</time>
      </trkpt>
      <trkpt lat="44.35667" lon="4.12783">
        <ele>275.07</ele>
        <time>2022-03-17T15:51:08Z</time>
      </trkpt>
      <trkpt lat="44.35678" lon="4.12796">
        <ele>275.07</ele>
        <time>2022-03-17T15:51:21Z</time>
      </trkpt>
      <trkpt lat="44.35679" lon="4.12798">
        <ele>274.59</ele>
        <time>2022-03-17T15:51:30Z</time>
      </trkpt>
      <trkpt lat="44.35683" lon="4.12804">
        <ele>274.59</ele>
        <time>2022-03-17T15:51:40Z</time>
      </trkpt>
      <trkpt lat="44.35684" lon="4.12805">
        <ele>275.07</ele>
        <time>2022-03-17T15:51:42Z</time>
      </trkpt>
      <trkpt lat="44.35684" lon="4.12814">
        <ele>275.56</ele>
        <time>2022-03-17T15:51:52Z</time>
      </trkpt>
      <trkpt lat="44.35685" lon="4.12821">
        <ele>276.04</ele>
        <time>2022-03-17T15:52:03Z</time>
      </trkpt>
      <trkpt lat="44.35687" lon="4.12825">
        <ele>276.04</ele>
        <time>2022-03-17T15:52:16Z</time>
      </trkpt>
      <trkpt lat="44.35687" lon="4.12826">
        <ele>276.04</ele>
        <time>2022-03-17T15:52:33Z</time>
      </trkpt>
      <trkpt lat="44.35688" lon="4.12826">
        <ele>276.04</ele>
        <time>2022-03-17T15:52:49Z</time>
      </trkpt>
      <trkpt lat="44.35693" lon="4.12836">
        <ele>276.52</ele>
        <time>2022-03-17T15:53:05Z</time>
      </trkpt>
      <trkpt lat="44.35693" lon="4.12837">
        <ele>276.04</ele>
        <time>2022-03-17T15:53:06Z</time>
      </trkpt>
      <trkpt lat="44.35702" lon="4.1285">
        <ele>277</ele>
        <time>2022-03-17T15:53:18Z</time>
      </trkpt>
      <trkpt lat="44.35708" lon="4.12865">
        <ele>276.52</ele>
        <time>2022-03-17T15:53:36Z</time>
      </trkpt>
      <trkpt lat="44.3571" lon="4.12873">
        <ele>277</ele>
        <time>2022-03-17T15:53:44Z</time>
      </trkpt>
      <trkpt lat="44.35713" lon="4.1288">
        <ele>277.48</ele>
        <time>2022-03-17T15:53:56Z</time>
      </trkpt>
      <trkpt lat="44.35717" lon="4.12881">
        <ele>277.48</ele>
        <time>2022-03-17T15:54:18Z</time>
      </trkpt>
      <trkpt lat="44.35718" lon="4.12882">
        <ele>277</ele>
        <time>2022-03-17T15:54:44Z</time>
      </trkpt>
      <trkpt lat="44.35724" lon="4.12887">
        <ele>277.96</ele>
        <time>2022-03-17T15:54:55Z</time>
      </trkpt>
      <trkpt lat="44.35726" lon="4.12886">
        <ele>278.44</ele>
        <time>2022-03-17T15:54:58Z</time>
      </trkpt>
      <trkpt lat="44.35731" lon="4.12893">
        <ele>278.92</ele>
        <time>2022-03-17T15:55:10Z</time>
      </trkpt>
      <trkpt lat="44.35734" lon="4.12895">
        <ele>279.88</ele>
        <time>2022-03-17T15:55:24Z</time>
      </trkpt>
      <trkpt lat="44.35736" lon="4.12898">
        <ele>280.84</ele>
        <time>2022-03-17T15:55:34Z</time>
      </trkpt>
      <trkpt lat="44.35736" lon="4.12899">
        <ele>280.84</ele>
        <time>2022-03-17T15:55:51Z</time>
      </trkpt>
      <trkpt lat="44.35737" lon="4.12903">
        <ele>280.84</ele>
        <time>2022-03-17T15:56:02Z</time>
      </trkpt>
      <trkpt lat="44.35738" lon="4.12909">
        <ele>281.32</ele>
        <time>2022-03-17T15:56:12Z</time>
      </trkpt>
      <trkpt lat="44.35743" lon="4.12918">
        <ele>282.28</ele>
        <time>2022-03-17T15:56:26Z</time>
      </trkpt>
      <trkpt lat="44.35745" lon="4.12919">
        <ele>282.28</ele>
        <time>2022-03-17T15:56:43Z</time>
      </trkpt>
      <trkpt lat="44.35747" lon="4.12923">
        <ele>282.77</ele>
        <time>2022-03-17T15:56:56Z</time>
      </trkpt>
      <trkpt lat="44.35749" lon="4.12927">
        <ele>283.25</ele>
        <time>2022-03-17T15:57:09Z</time>
      </trkpt>
      <trkpt lat="44.35753" lon="4.12935">
        <ele>283.25</ele>
        <time>2022-03-17T15:57:23Z</time>
      </trkpt>
      <trkpt lat="44.35754" lon="4.12936">
        <ele>282.77</ele>
        <time>2022-03-17T15:57:25Z</time>
      </trkpt>
      <trkpt lat="44.3576" lon="4.1295">
        <ele>282.77</ele>
        <time>2022-03-17T15:57:39Z</time>
      </trkpt>
      <trkpt lat="44.35764" lon="4.12962">
        <ele>282.77</ele>
        <time>2022-03-17T15:57:49Z</time>
      </trkpt>
      <trkpt lat="44.35771" lon="4.12973">
        <ele>282.77</ele>
        <time>2022-03-17T15:58:00Z</time>
      </trkpt>
      <trkpt lat="44.35777" lon="4.12976">
        <ele>282.28</ele>
        <time>2022-03-17T15:58:12Z</time>
      </trkpt>
      <trkpt lat="44.35782" lon="4.12983">
        <ele>282.28</ele>
        <time>2022-03-17T15:58:24Z</time>
      </trkpt>
      <trkpt lat="44.35785" lon="4.12988">
        <ele>282.28</ele>
        <time>2022-03-17T15:58:45Z</time>
      </trkpt>
      <trkpt lat="44.35787" lon="4.12994">
        <ele>282.28</ele>
        <time>2022-03-17T15:58:58Z</time>
      </trkpt>
      <trkpt lat="44.3579" lon="4.13001">
        <ele>282.77</ele>
        <time>2022-03-17T15:59:15Z</time>
      </trkpt>
      <trkpt lat="44.35794" lon="4.13009">
        <ele>283.25</ele>
        <time>2022-03-17T15:59:27Z</time>
      </trkpt>
      <trkpt lat="44.358" lon="4.13015">
        <ele>283.25</ele>
        <time>2022-03-17T15:59:43Z</time>
      </trkpt>
      <trkpt lat="44.35801" lon="4.13016">
        <ele>283.73</ele>
        <time>2022-03-17T16:00:08Z</time>
      </trkpt>
      <trkpt lat="44.35803" lon="4.13018">
        <ele>284.21</ele>
        <time>2022-03-17T16:00:26Z</time>
      </trkpt>
      <trkpt lat="44.35806" lon="4.13022">
        <ele>285.17</ele>
        <time>2022-03-17T16:00:38Z</time>
      </trkpt>
      <trkpt lat="44.35809" lon="4.13026">
        <ele>285.65</ele>
        <time>2022-03-17T16:00:48Z</time>
      </trkpt>
      <trkpt lat="44.35816" lon="4.13033">
        <ele>287.09</ele>
        <time>2022-03-17T16:01:01Z</time>
      </trkpt>
      <trkpt lat="44.3583" lon="4.13039">
        <ele>288.05</ele>
        <time>2022-03-17T16:01:13Z</time>
      </trkpt>
      <trkpt lat="44.35842" lon="4.13046">
        <ele>288.05</ele>
        <time>2022-03-17T16:01:26Z</time>
      </trkpt>
      <trkpt lat="44.35849" lon="4.13054">
        <ele>289.01</ele>
        <time>2022-03-17T16:01:40Z</time>
      </trkpt>
      <trkpt lat="44.35853" lon="4.13056">
        <ele>289.49</ele>
        <time>2022-03-17T16:01:54Z</time>
      </trkpt>
      <trkpt lat="44.35854" lon="4.13058">
        <ele>289.49</ele>
        <time>2022-03-17T16:02:12Z</time>
      </trkpt>
      <trkpt lat="44.35859" lon="4.1306">
        <ele>289.97</ele>
        <time>2022-03-17T16:02:27Z</time>
      </trkpt>
      <trkpt lat="44.35864" lon="4.13062">
        <ele>290.46</ele>
        <time>2022-03-17T16:02:42Z</time>
      </trkpt>
      <trkpt lat="44.35864" lon="4.13062">
        <ele>290.46</ele>
        <time>2022-03-17T16:03:02Z</time>
      </trkpt>
      <trkpt lat="44.35865" lon="4.13062">
        <ele>290.46</ele>
        <time>2022-03-17T16:03:32Z</time>
      </trkpt>
      <trkpt lat="44.35866" lon="4.13062">
        <ele>290.94</ele>
        <time>2022-03-17T16:03:46Z</time>
      </trkpt>
      <trkpt lat="44.35868" lon="4.13061">
        <ele>290.94</ele>
        <time>2022-03-17T16:04:02Z</time>
      </trkpt>
      <trkpt lat="44.3587" lon="4.13062">
        <ele>291.42</ele>
        <time>2022-03-17T16:04:18Z</time>
      </trkpt>
      <trkpt lat="44.35876" lon="4.13062">
        <ele>291.42</ele>
        <time>2022-03-17T16:04:33Z</time>
      </trkpt>
      <trkpt lat="44.35885" lon="4.13064">
        <ele>291.42</ele>
        <time>2022-03-17T16:04:47Z</time>
      </trkpt>
      <trkpt lat="44.35892" lon="4.13066">
        <ele>291.42</ele>
        <time>2022-03-17T16:05:04Z</time>
      </trkpt>
      <trkpt lat="44.35898" lon="4.13067">
        <ele>291.42</ele>
        <time>2022-03-17T16:05:15Z</time>
      </trkpt>
      <trkpt lat="44.35901" lon="4.13069">
        <ele>291.42</ele>
        <time>2022-03-17T16:05:29Z</time>
      </trkpt>
      <trkpt lat="44.35913" lon="4.13071">
        <ele>291.9</ele>
        <time>2022-03-17T16:05:41Z</time>
      </trkpt>
      <trkpt lat="44.35925" lon="4.13072">
        <ele>292.38</ele>
        <time>2022-03-17T16:05:54Z</time>
      </trkpt>
      <trkpt lat="44.35928" lon="4.13072">
        <ele>292.38</ele>
        <time>2022-03-17T16:05:57Z</time>
      </trkpt>
      <trkpt lat="44.35939" lon="4.13071">
        <ele>293.34</ele>
        <time>2022-03-17T16:06:11Z</time>
      </trkpt>
      <trkpt lat="44.35945" lon="4.1307">
        <ele>294.3</ele>
        <time>2022-03-17T16:06:22Z</time>
      </trkpt>
      <trkpt lat="44.35953" lon="4.13067">
        <ele>293.82</ele>
        <time>2022-03-17T16:06:34Z</time>
      </trkpt>
      <trkpt lat="44.35963" lon="4.1307">
        <ele>293.34</ele>
        <time>2022-03-17T16:06:46Z</time>
      </trkpt>
      <trkpt lat="44.35969" lon="4.13071">
        <ele>294.3</ele>
        <time>2022-03-17T16:06:59Z</time>
      </trkpt>
      <trkpt lat="44.3597" lon="4.1307">
        <ele>294.78</ele>
        <time>2022-03-17T16:07:22Z</time>
      </trkpt>
      <trkpt lat="44.35978" lon="4.1307">
        <ele>295.74</ele>
        <time>2022-03-17T16:07:36Z</time>
      </trkpt>
      <trkpt lat="44.35982" lon="4.1307">
        <ele>295.74</ele>
        <time>2022-03-17T16:07:45Z</time>
      </trkpt>
      <trkpt lat="44.35985" lon="4.1307">
        <ele>295.74</ele>
        <time>2022-03-17T16:07:48Z</time>
      </trkpt>
      <trkpt lat="44.35992" lon="4.13071">
        <ele>296.22</ele>
        <time>2022-03-17T16:07:55Z</time>
      </trkpt>
      <trkpt lat="44.36001" lon="4.13067">
        <ele>297.67</ele>
        <time>2022-03-17T16:08:07Z</time>
      </trkpt>
      <trkpt lat="44.36004" lon="4.13059">
        <ele>299.59</ele>
        <time>2022-03-17T16:08:19Z</time>
      </trkpt>
      <trkpt lat="44.36012" lon="4.1306">
        <ele>301.51</ele>
        <time>2022-03-17T16:08:31Z</time>
      </trkpt>
      <trkpt lat="44.36015" lon="4.13058">
        <ele>302.47</ele>
        <time>2022-03-17T16:08:42Z</time>
      </trkpt>
      <trkpt lat="44.36015" lon="4.13058">
        <ele>301.99</ele>
        <time>2022-03-17T16:09:03Z</time>
      </trkpt>
      <trkpt lat="44.36016" lon="4.13056">
        <ele>302.95</ele>
        <time>2022-03-17T16:09:20Z</time>
      </trkpt>
      <trkpt lat="44.36017" lon="4.13056">
        <ele>302.47</ele>
        <time>2022-03-17T16:09:42Z</time>
      </trkpt>
      <trkpt lat="44.3602" lon="4.13053">
        <ele>303.91</ele>
        <time>2022-03-17T16:09:52Z</time>
      </trkpt>
      <trkpt lat="44.36022" lon="4.13052">
        <ele>304.39</ele>
        <time>2022-03-17T16:10:01Z</time>
      </trkpt>
      <trkpt lat="44.36023" lon="4.13053">
        <ele>304.39</ele>
        <time>2022-03-17T16:10:19Z</time>
      </trkpt>
      <trkpt lat="44.36023" lon="4.13054">
        <ele>305.84</ele>
        <time>2022-03-17T16:10:27Z</time>
      </trkpt>
      <trkpt lat="44.36028" lon="4.13054">
        <ele>306.8</ele>
        <time>2022-03-17T16:10:39Z</time>
      </trkpt>
      <trkpt lat="44.36029" lon="4.13055">
        <ele>307.76</ele>
        <time>2022-03-17T16:10:54Z</time>
      </trkpt>
      <trkpt lat="44.36032" lon="4.13051">
        <ele>308.24</ele>
        <time>2022-03-17T16:11:09Z</time>
      </trkpt>
      <trkpt lat="44.36041" lon="4.13051">
        <ele>310.16</ele>
        <time>2022-03-17T16:11:20Z</time>
      </trkpt>
      <trkpt lat="44.36048" lon="4.13051">
        <ele>311.6</ele>
        <time>2022-03-17T16:11:31Z</time>
      </trkpt>
      <trkpt lat="44.36053" lon="4.13048">
        <ele>313.05</ele>
        <time>2022-03-17T16:11:43Z</time>
      </trkpt>
      <trkpt lat="44.3606" lon="4.13052">
        <ele>313.53</ele>
        <time>2022-03-17T16:11:55Z</time>
      </trkpt>
      <trkpt lat="44.36066" lon="4.13052">
        <ele>314.97</ele>
        <time>2022-03-17T16:12:05Z</time>
      </trkpt>
      <trkpt lat="44.36074" lon="4.13053">
        <ele>317.85</ele>
        <time>2022-03-17T16:12:18Z</time>
      </trkpt>
      <trkpt lat="44.36075" lon="4.1305">
        <ele>317.85</ele>
        <time>2022-03-17T16:12:31Z</time>
      </trkpt>
      <trkpt lat="44.36077" lon="4.13051">
        <ele>318.33</ele>
        <time>2022-03-17T16:12:45Z</time>
      </trkpt>
      <trkpt lat="44.36084" lon="4.13051">
        <ele>319.3</ele>
        <time>2022-03-17T16:13:02Z</time>
      </trkpt>
      <trkpt lat="44.36092" lon="4.13049">
        <ele>321.22</ele>
        <time>2022-03-17T16:13:13Z</time>
      </trkpt>
      <trkpt lat="44.36102" lon="4.13049">
        <ele>322.66</ele>
        <time>2022-03-17T16:13:26Z</time>
      </trkpt>
      <trkpt lat="44.36107" lon="4.13047">
        <ele>324.1</ele>
        <time>2022-03-17T16:13:38Z</time>
      </trkpt>
      <trkpt lat="44.36108" lon="4.13048">
        <ele>324.58</ele>
        <time>2022-03-17T16:13:59Z</time>
      </trkpt>
      <trkpt lat="44.36112" lon="4.13043">
        <ele>326.02</ele>
        <time>2022-03-17T16:14:12Z</time>
      </trkpt>
      <trkpt lat="44.36117" lon="4.13041">
        <ele>327.47</ele>
        <time>2022-03-17T16:14:23Z</time>
      </trkpt>
      <trkpt lat="44.3612" lon="4.13038">
        <ele>327.95</ele>
        <time>2022-03-17T16:14:38Z</time>
      </trkpt>
      <trkpt lat="44.36123" lon="4.13037">
        <ele>328.43</ele>
        <time>2022-03-17T16:14:53Z</time>
      </trkpt>
      <trkpt lat="44.36129" lon="4.13036">
        <ele>329.87</ele>
        <time>2022-03-17T16:15:08Z</time>
      </trkpt>
      <trkpt lat="44.36137" lon="4.13034">
        <ele>331.31</ele>
        <time>2022-03-17T16:15:20Z</time>
      </trkpt>
      <trkpt lat="44.36145" lon="4.13032">
        <ele>333.23</ele>
        <time>2022-03-17T16:15:33Z</time>
      </trkpt>
      <trkpt lat="44.36151" lon="4.13027">
        <ele>334.68</ele>
        <time>2022-03-17T16:15:48Z</time>
      </trkpt>
      <trkpt lat="44.36158" lon="4.13027">
        <ele>336.6</ele>
        <time>2022-03-17T16:16:01Z</time>
      </trkpt>
      <trkpt lat="44.36162" lon="4.13028">
        <ele>337.08</ele>
        <time>2022-03-17T16:16:14Z</time>
      </trkpt>
      <trkpt lat="44.36162" lon="4.13026">
        <ele>337.08</ele>
        <time>2022-03-17T16:16:31Z</time>
      </trkpt>
      <trkpt lat="44.36162" lon="4.13025">
        <ele>337.08</ele>
        <time>2022-03-17T16:16:55Z</time>
      </trkpt>
      <trkpt lat="44.36165" lon="4.13025">
        <ele>338.04</ele>
        <time>2022-03-17T16:17:14Z</time>
      </trkpt>
      <trkpt lat="44.36171" lon="4.13022">
        <ele>339.48</ele>
        <time>2022-03-17T16:17:27Z</time>
      </trkpt>
      <trkpt lat="44.36179" lon="4.13017">
        <ele>340.44</ele>
        <time>2022-03-17T16:17:39Z</time>
      </trkpt>
      <trkpt lat="44.36182" lon="4.1301">
        <ele>341.89</ele>
        <time>2022-03-17T16:17:53Z</time>
      </trkpt>
      <trkpt lat="44.36186" lon="4.13006">
        <ele>343.33</ele>
        <time>2022-03-17T16:18:06Z</time>
      </trkpt>
      <trkpt lat="44.36188" lon="4.13005">
        <ele>343.33</ele>
        <time>2022-03-17T16:18:20Z</time>
      </trkpt>
      <trkpt lat="44.36191" lon="4.13004">
        <ele>344.29</ele>
        <time>2022-03-17T16:18:33Z</time>
      </trkpt>
      <trkpt lat="44.36196" lon="4.13004">
        <ele>345.25</ele>
        <time>2022-03-17T16:18:45Z</time>
      </trkpt>
      <trkpt lat="44.36201" lon="4.13005">
        <ele>346.69</ele>
        <time>2022-03-17T16:18:59Z</time>
      </trkpt>
      <trkpt lat="44.36209" lon="4.13003">
        <ele>347.65</ele>
        <time>2022-03-17T16:19:12Z</time>
      </trkpt>
      <trkpt lat="44.3621" lon="4.13004">
        <ele>348.13</ele>
        <time>2022-03-17T16:19:33Z</time>
      </trkpt>
      <trkpt lat="44.36216" lon="4.13">
        <ele>347.65</ele>
        <time>2022-03-17T16:19:48Z</time>
      </trkpt>
      <trkpt lat="44.36216" lon="4.13">
        <ele>347.65</ele>
        <time>2022-03-17T16:20:10Z</time>
      </trkpt>
      <trkpt lat="44.36217" lon="4.12999">
        <ele>347.65</ele>
        <time>2022-03-17T16:20:31Z</time>
      </trkpt>
      <trkpt lat="44.36218" lon="4.12998">
        <ele>347.65</ele>
        <time>2022-03-17T16:20:45Z</time>
      </trkpt>
      <trkpt lat="44.36227" lon="4.12998">
        <ele>348.62</ele>
        <time>2022-03-17T16:20:58Z</time>
      </trkpt>
      <trkpt lat="44.36236" lon="4.12993">
        <ele>349.58</ele>
        <time>2022-03-17T16:21:11Z</time>
      </trkpt>
      <trkpt lat="44.36243" lon="4.12985">
        <ele>349.58</ele>
        <time>2022-03-17T16:21:24Z</time>
      </trkpt>
      <trkpt lat="44.36245" lon="4.12983">
        <ele>349.58</ele>
        <time>2022-03-17T16:21:33Z</time>
      </trkpt>
      <trkpt lat="44.36246" lon="4.12975">
        <ele>348.62</ele>
        <time>2022-03-17T16:21:47Z</time>
      </trkpt>
      <trkpt lat="44.36252" lon="4.12968">
        <ele>347.65</ele>
        <time>2022-03-17T16:21:58Z</time>
      </trkpt>
      <trkpt lat="44.36253" lon="4.12962">
        <ele>347.17</ele>
        <time>2022-03-17T16:22:10Z</time>
      </trkpt>
      <trkpt lat="44.36256" lon="4.12955">
        <ele>346.69</ele>
        <time>2022-03-17T16:22:21Z</time>
      </trkpt>
      <trkpt lat="44.3626" lon="4.12955">
        <ele>345.73</ele>
        <time>2022-03-17T16:22:32Z</time>
      </trkpt>
      <trkpt lat="44.36266" lon="4.12954">
        <ele>344.29</ele>
        <time>2022-03-17T16:22:44Z</time>
      </trkpt>
      <trkpt lat="44.36271" lon="4.12953">
        <ele>343.81</ele>
        <time>2022-03-17T16:22:54Z</time>
      </trkpt>
      <trkpt lat="44.36277" lon="4.1295">
        <ele>344.77</ele>
        <time>2022-03-17T16:23:06Z</time>
      </trkpt>
      <trkpt lat="44.36282" lon="4.1295">
        <ele>344.29</ele>
        <time>2022-03-17T16:23:22Z</time>
      </trkpt>
      <trkpt lat="44.36287" lon="4.12949">
        <ele>343.81</ele>
        <time>2022-03-17T16:23:43Z</time>
      </trkpt>
      <trkpt lat="44.36291" lon="4.12949">
        <ele>343.33</ele>
        <time>2022-03-17T16:24:05Z</time>
      </trkpt>
      <trkpt lat="44.36292" lon="4.12947">
        <ele>343.81</ele>
        <time>2022-03-17T16:24:23Z</time>
      </trkpt>
      <trkpt lat="44.36292" lon="4.12948">
        <ele>343.81</ele>
        <time>2022-03-17T16:24:39Z</time>
      </trkpt>
      <trkpt lat="44.36289" lon="4.12949">
        <ele>344.77</ele>
        <time>2022-03-17T16:24:52Z</time>
      </trkpt>
      <trkpt lat="44.36289" lon="4.1295">
        <ele>344.29</ele>
        <time>2022-03-17T16:25:14Z</time>
      </trkpt>
      <trkpt lat="44.36288" lon="4.12948">
        <ele>344.29</ele>
        <time>2022-03-17T16:25:28Z</time>
      </trkpt>
      <trkpt lat="44.36284" lon="4.12947">
        <ele>344.29</ele>
        <time>2022-03-17T16:25:39Z</time>
      </trkpt>
      <trkpt lat="44.36278" lon="4.12951">
        <ele>343.81</ele>
        <time>2022-03-17T16:25:51Z</time>
      </trkpt>
      <trkpt lat="44.36269" lon="4.12952">
        <ele>345.73</ele>
        <time>2022-03-17T16:26:06Z</time>
      </trkpt>
      <trkpt lat="44.36266" lon="4.12953">
        <ele>346.21</ele>
        <time>2022-03-17T16:26:23Z</time>
      </trkpt>
      <trkpt lat="44.36263" lon="4.12956">
        <ele>346.69</ele>
        <time>2022-03-17T16:26:36Z</time>
      </trkpt>
      <trkpt lat="44.36257" lon="4.12958">
        <ele>347.17</ele>
        <time>2022-03-17T16:26:48Z</time>
      </trkpt>
      <trkpt lat="44.3625" lon="4.12964">
        <ele>348.13</ele>
        <time>2022-03-17T16:27:03Z</time>
      </trkpt>
      <trkpt lat="44.36245" lon="4.12971">
        <ele>349.58</ele>
        <time>2022-03-17T16:27:16Z</time>
      </trkpt>
      <trkpt lat="44.36244" lon="4.12975">
        <ele>349.58</ele>
        <time>2022-03-17T16:27:36Z</time>
      </trkpt>
      <trkpt lat="44.36246" lon="4.12977">
        <ele>349.58</ele>
        <time>2022-03-17T16:27:58Z</time>
      </trkpt>
      <trkpt lat="44.36244" lon="4.12987">
        <ele>351.02</ele>
        <time>2022-03-17T16:28:10Z</time>
      </trkpt>
      <trkpt lat="44.36244" lon="4.12996">
        <ele>352.46</ele>
        <time>2022-03-17T16:28:22Z</time>
      </trkpt>
      <trkpt lat="44.36245" lon="4.12999">
        <ele>353.42</ele>
        <time>2022-03-17T16:28:36Z</time>
      </trkpt>
      <trkpt lat="44.36246" lon="4.13008">
        <ele>354.86</ele>
        <time>2022-03-17T16:28:47Z</time>
      </trkpt>
      <trkpt lat="44.36245" lon="4.13016">
        <ele>355.34</ele>
        <time>2022-03-17T16:29:01Z</time>
      </trkpt>
      <trkpt lat="44.36238" lon="4.13026">
        <ele>356.31</ele>
        <time>2022-03-17T16:29:17Z</time>
      </trkpt>
      <trkpt lat="44.36237" lon="4.13027">
        <ele>356.31</ele>
        <time>2022-03-17T16:29:34Z</time>
      </trkpt>
      <trkpt lat="44.36236" lon="4.13039">
        <ele>357.27</ele>
        <time>2022-03-17T16:29:48Z</time>
      </trkpt>
      <trkpt lat="44.36233" lon="4.13045">
        <ele>358.23</ele>
        <time>2022-03-17T16:29:59Z</time>
      </trkpt>
      <trkpt lat="44.36228" lon="4.13053">
        <ele>359.19</ele>
        <time>2022-03-17T16:30:11Z</time>
      </trkpt>
      <trkpt lat="44.36226" lon="4.13062">
        <ele>360.63</ele>
        <time>2022-03-17T16:30:23Z</time>
      </trkpt>
      <trkpt lat="44.36225" lon="4.13066">
        <ele>360.63</ele>
        <time>2022-03-17T16:30:27Z</time>
      </trkpt>
      <trkpt lat="44.36222" lon="4.13076">
        <ele>362.07</ele>
        <time>2022-03-17T16:30:43Z</time>
      </trkpt>
      <trkpt lat="44.36222" lon="4.13081">
        <ele>363.52</ele>
        <time>2022-03-17T16:30:58Z</time>
      </trkpt>
      <trkpt lat="44.36222" lon="4.13085">
        <ele>364</ele>
        <time>2022-03-17T16:31:13Z</time>
      </trkpt>
      <trkpt lat="44.36223" lon="4.13088">
        <ele>364</ele>
        <time>2022-03-17T16:31:35Z</time>
      </trkpt>
      <trkpt lat="44.36221" lon="4.13098">
        <ele>364.48</ele>
        <time>2022-03-17T16:31:51Z</time>
      </trkpt>
      <trkpt lat="44.36221" lon="4.13109">
        <ele>364.96</ele>
        <time>2022-03-17T16:32:05Z</time>
      </trkpt>
      <trkpt lat="44.36221" lon="4.13111">
        <ele>365.44</ele>
        <time>2022-03-17T16:32:18Z</time>
      </trkpt>
      <trkpt lat="44.3622" lon="4.13112">
        <ele>365.44</ele>
        <time>2022-03-17T16:32:31Z</time>
      </trkpt>
      <trkpt lat="44.36219" lon="4.13116">
        <ele>365.92</ele>
        <time>2022-03-17T16:32:49Z</time>
      </trkpt>
      <trkpt lat="44.36219" lon="4.13122">
        <ele>366.4</ele>
        <time>2022-03-17T16:33:03Z</time>
      </trkpt>
      <trkpt lat="44.36218" lon="4.13128">
        <ele>366.88</ele>
        <time>2022-03-17T16:33:26Z</time>
      </trkpt>
      <trkpt lat="44.36214" lon="4.13134">
        <ele>367.36</ele>
        <time>2022-03-17T16:33:40Z</time>
      </trkpt>
      <trkpt lat="44.36213" lon="4.13137">
        <ele>368.8</ele>
        <time>2022-03-17T16:33:57Z</time>
      </trkpt>
      <trkpt lat="44.36209" lon="4.13145">
        <ele>369.76</ele>
        <time>2022-03-17T16:34:14Z</time>
      </trkpt>
      <trkpt lat="44.36206" lon="4.13153">
        <ele>370.73</ele>
        <time>2022-03-17T16:34:26Z</time>
      </trkpt>
      <trkpt lat="44.36206" lon="4.13157">
        <ele>371.21</ele>
        <time>2022-03-17T16:34:38Z</time>
      </trkpt>
      <trkpt lat="44.36206" lon="4.13161">
        <ele>371.69</ele>
        <time>2022-03-17T16:35:04Z</time>
      </trkpt>
      <trkpt lat="44.36209" lon="4.13176">
        <ele>373.13</ele>
        <time>2022-03-17T16:35:18Z</time>
      </trkpt>
      <trkpt lat="44.36209" lon="4.13186">
        <ele>374.09</ele>
        <time>2022-03-17T16:35:30Z</time>
      </trkpt>
      <trkpt lat="44.36209" lon="4.13187">
        <ele>377.45</ele>
        <time>2022-03-17T16:35:36Z</time>
      </trkpt>
      <trkpt lat="44.36209" lon="4.13187">
        <ele>374.57</ele>
        <time>2022-03-17T16:35:39Z</time>
      </trkpt>
      <trkpt lat="44.3621" lon="4.13193">
        <ele>375.05</ele>
        <time>2022-03-17T16:35:50Z</time>
      </trkpt>
      <trkpt lat="44.36209" lon="4.13196">
        <ele>375.53</ele>
        <time>2022-03-17T16:36:17Z</time>
      </trkpt>
      <trkpt lat="44.36207" lon="4.13199">
        <ele>375.53</ele>
        <time>2022-03-17T16:36:31Z</time>
      </trkpt>
      <trkpt lat="44.36205" lon="4.13202">
        <ele>376.49</ele>
        <time>2022-03-17T16:36:46Z</time>
      </trkpt>
      <trkpt lat="44.36206" lon="4.13206">
        <ele>376.97</ele>
        <time>2022-03-17T16:37:04Z</time>
      </trkpt>
      <trkpt lat="44.36205" lon="4.13208">
        <ele>377.94</ele>
        <time>2022-03-17T16:37:17Z</time>
      </trkpt>
      <trkpt lat="44.36202" lon="4.13216">
        <ele>378.9</ele>
        <time>2022-03-17T16:37:30Z</time>
      </trkpt>
      <trkpt lat="44.36202" lon="4.1322">
        <ele>379.86</ele>
        <time>2022-03-17T16:37:42Z</time>
      </trkpt>
      <trkpt lat="44.36201" lon="4.13222">
        <ele>380.82</ele>
        <time>2022-03-17T16:37:56Z</time>
      </trkpt>
      <trkpt lat="44.36199" lon="4.13225">
        <ele>381.3</ele>
        <time>2022-03-17T16:38:07Z</time>
      </trkpt>
      <trkpt lat="44.36201" lon="4.13235">
        <ele>382.74</ele>
        <time>2022-03-17T16:38:20Z</time>
      </trkpt>
      <trkpt lat="44.36201" lon="4.13242">
        <ele>383.7</ele>
        <time>2022-03-17T16:38:35Z</time>
      </trkpt>
      <trkpt lat="44.36199" lon="4.13244">
        <ele>384.66</ele>
        <time>2022-03-17T16:38:46Z</time>
      </trkpt>
      <trkpt lat="44.362" lon="4.13252">
        <ele>386.11</ele>
        <time>2022-03-17T16:39:01Z</time>
      </trkpt>
      <trkpt lat="44.36202" lon="4.13262">
        <ele>387.07</ele>
        <time>2022-03-17T16:39:12Z</time>
      </trkpt>
      <trkpt lat="44.36204" lon="4.13273">
        <ele>387.07</ele>
        <time>2022-03-17T16:39:27Z</time>
      </trkpt>
      <trkpt lat="44.36205" lon="4.1328">
        <ele>387.55</ele>
        <time>2022-03-17T16:39:42Z</time>
      </trkpt>
      <trkpt lat="44.36203" lon="4.13284">
        <ele>387.55</ele>
        <time>2022-03-17T16:40:05Z</time>
      </trkpt>
      <trkpt lat="44.36204" lon="4.1329">
        <ele>388.03</ele>
        <time>2022-03-17T16:40:19Z</time>
      </trkpt>
      <trkpt lat="44.362" lon="4.13293">
        <ele>388.51</ele>
        <time>2022-03-17T16:40:28Z</time>
      </trkpt>
      <trkpt lat="44.36199" lon="4.133">
        <ele>388.51</ele>
        <time>2022-03-17T16:40:44Z</time>
      </trkpt>
      <trkpt lat="44.36197" lon="4.133">
        <ele>388.99</ele>
        <time>2022-03-17T16:40:48Z</time>
      </trkpt>
      <trkpt lat="44.36193" lon="4.13306">
        <ele>389.47</ele>
        <time>2022-03-17T16:41:00Z</time>
      </trkpt>
      <trkpt lat="44.36195" lon="4.1332">
        <ele>389.95</ele>
        <time>2022-03-17T16:41:29Z</time>
      </trkpt>
      <trkpt lat="44.36197" lon="4.1333">
        <ele>389.95</ele>
        <time>2022-03-17T16:41:56Z</time>
      </trkpt>
      <trkpt lat="44.36203" lon="4.13335">
        <ele>389.47</ele>
        <time>2022-03-17T16:42:13Z</time>
      </trkpt>
      <trkpt lat="44.36204" lon="4.13333">
        <ele>388.99</ele>
        <time>2022-03-17T16:42:29Z</time>
      </trkpt>
      <trkpt lat="44.36206" lon="4.13335">
        <ele>388.99</ele>
        <time>2022-03-17T16:42:45Z</time>
      </trkpt>
      <trkpt lat="44.36207" lon="4.13336">
        <ele>389.47</ele>
        <time>2022-03-17T16:43:06Z</time>
      </trkpt>
      <trkpt lat="44.36208" lon="4.13336">
        <ele>389.47</ele>
        <time>2022-03-17T16:43:20Z</time>
      </trkpt>
      <trkpt lat="44.36208" lon="4.13335">
        <ele>389.47</ele>
        <time>2022-03-17T16:43:32Z</time>
      </trkpt>
      <trkpt lat="44.36208" lon="4.13335">
        <ele>388.99</ele>
        <time>2022-03-17T16:43:45Z</time>
      </trkpt>
      <trkpt lat="44.36208" lon="4.13336">
        <ele>389.95</ele>
        <time>2022-03-17T16:43:58Z</time>
      </trkpt>
      <trkpt lat="44.36208" lon="4.13336">
        <ele>390.43</ele>
        <time>2022-03-17T16:44:12Z</time>
      </trkpt>
      <trkpt lat="44.36208" lon="4.13337">
        <ele>390.91</ele>
        <time>2022-03-17T16:44:27Z</time>
      </trkpt>
      <trkpt lat="44.36205" lon="4.13339">
        <ele>390.91</ele>
        <time>2022-03-17T16:44:42Z</time>
      </trkpt>
      <trkpt lat="44.36204" lon="4.1334">
        <ele>390.91</ele>
        <time>2022-03-17T16:45:00Z</time>
      </trkpt>
      <trkpt lat="44.36204" lon="4.13341">
        <ele>390.43</ele>
        <time>2022-03-17T16:45:16Z</time>
      </trkpt>
      <trkpt lat="44.36204" lon="4.13341">
        <ele>390.91</ele>
        <time>2022-03-17T16:45:31Z</time>
      </trkpt>
      <trkpt lat="44.36204" lon="4.13342">
        <ele>391.87</ele>
        <time>2022-03-17T16:45:47Z</time>
      </trkpt>
      <trkpt lat="44.36204" lon="4.13342">
        <ele>392.36</ele>
        <time>2022-03-17T16:45:51Z</time>
      </trkpt>
      <trkpt lat="44.36197" lon="4.13352">
        <ele>393.32</ele>
        <time>2022-03-17T16:46:06Z</time>
      </trkpt>
      <trkpt lat="44.36191" lon="4.13357">
        <ele>393.8</ele>
        <time>2022-03-17T16:46:19Z</time>
      </trkpt>
      <trkpt lat="44.36186" lon="4.13367">
        <ele>394.28</ele>
        <time>2022-03-17T16:46:32Z</time>
      </trkpt>
      <trkpt lat="44.36176" lon="4.13373">
        <ele>396.2</ele>
        <time>2022-03-17T16:46:47Z</time>
      </trkpt>
      <trkpt lat="44.36172" lon="4.13382">
        <ele>398.12</ele>
        <time>2022-03-17T16:46:59Z</time>
      </trkpt>
      <trkpt lat="44.36165" lon="4.1339">
        <ele>399.57</ele>
        <time>2022-03-17T16:47:12Z</time>
      </trkpt>
      <trkpt lat="44.36161" lon="4.13393">
        <ele>400.53</ele>
        <time>2022-03-17T16:47:25Z</time>
      </trkpt>
      <trkpt lat="44.36159" lon="4.13397">
        <ele>401.01</ele>
        <time>2022-03-17T16:47:38Z</time>
      </trkpt>
      <trkpt lat="44.36152" lon="4.13405">
        <ele>402.93</ele>
        <time>2022-03-17T16:47:53Z</time>
      </trkpt>
      <trkpt lat="44.36146" lon="4.13411">
        <ele>403.89</ele>
        <time>2022-03-17T16:48:04Z</time>
      </trkpt>
      <trkpt lat="44.36136" lon="4.13415">
        <ele>404.37</ele>
        <time>2022-03-17T16:48:19Z</time>
      </trkpt>
      <trkpt lat="44.3613" lon="4.13425">
        <ele>405.33</ele>
        <time>2022-03-17T16:48:32Z</time>
      </trkpt>
      <trkpt lat="44.36128" lon="4.13429">
        <ele>405.81</ele>
        <time>2022-03-17T16:48:35Z</time>
      </trkpt>
      <trkpt lat="44.36119" lon="4.13435">
        <ele>406.77</ele>
        <time>2022-03-17T16:48:46Z</time>
      </trkpt>
      <trkpt lat="44.36108" lon="4.13445">
        <ele>408.22</ele>
        <time>2022-03-17T16:48:59Z</time>
      </trkpt>
      <trkpt lat="44.36105" lon="4.13448">
        <ele>408.22</ele>
        <time>2022-03-17T16:49:19Z</time>
      </trkpt>
      <trkpt lat="44.36101" lon="4.13454">
        <ele>409.18</ele>
        <time>2022-03-17T16:49:30Z</time>
      </trkpt>
      <trkpt lat="44.36096" lon="4.13458">
        <ele>409.66</ele>
        <time>2022-03-17T16:49:41Z</time>
      </trkpt>
      <trkpt lat="44.36092" lon="4.13467">
        <ele>411.1</ele>
        <time>2022-03-17T16:49:54Z</time>
      </trkpt>
      <trkpt lat="44.36083" lon="4.13467">
        <ele>411.58</ele>
        <time>2022-03-17T16:50:07Z</time>
      </trkpt>
      <trkpt lat="44.36079" lon="4.13467">
        <ele>412.54</ele>
        <time>2022-03-17T16:50:22Z</time>
      </trkpt>
      <trkpt lat="44.36074" lon="4.13465">
        <ele>413.02</ele>
        <time>2022-03-17T16:50:36Z</time>
      </trkpt>
      <trkpt lat="44.36066" lon="4.13466">
        <ele>413.5</ele>
        <time>2022-03-17T16:50:48Z</time>
      </trkpt>
      <trkpt lat="44.36063" lon="4.13467">
        <ele>413.5</ele>
        <time>2022-03-17T16:50:59Z</time>
      </trkpt>
      <trkpt lat="44.36061" lon="4.13469">
        <ele>413.98</ele>
        <time>2022-03-17T16:51:13Z</time>
      </trkpt>
      <trkpt lat="44.36058" lon="4.13472">
        <ele>414.95</ele>
        <time>2022-03-17T16:51:29Z</time>
      </trkpt>
      <trkpt lat="44.36058" lon="4.13472">
        <ele>413.98</ele>
        <time>2022-03-17T16:51:50Z</time>
      </trkpt>
      <trkpt lat="44.36058" lon="4.13473">
        <ele>414.47</ele>
        <time>2022-03-17T16:52:06Z</time>
      </trkpt>
      <trkpt lat="44.36058" lon="4.13474">
        <ele>413.98</ele>
        <time>2022-03-17T16:52:26Z</time>
      </trkpt>
      <trkpt lat="44.36058" lon="4.13474">
        <ele>413.98</ele>
        <time>2022-03-17T16:52:47Z</time>
      </trkpt>
      <trkpt lat="44.36059" lon="4.13474">
        <ele>413.98</ele>
        <time>2022-03-17T16:53:07Z</time>
      </trkpt>
      <trkpt lat="44.36058" lon="4.13474">
        <ele>414.47</ele>
        <time>2022-03-17T16:53:27Z</time>
      </trkpt>
      <trkpt lat="44.36058" lon="4.13474">
        <ele>413.98</ele>
        <time>2022-03-17T16:53:45Z</time>
      </trkpt>
      <trkpt lat="44.36058" lon="4.13475">
        <ele>413.98</ele>
        <time>2022-03-17T16:53:46Z</time>
      </trkpt>
      <trkpt lat="44.36058" lon="4.13475">
        <ele>414.47</ele>
        <time>2022-03-17T16:53:56Z</time>
      </trkpt>
      <trkpt lat="44.36058" lon="4.13476">
        <ele>414.47</ele>
        <time>2022-03-17T16:54:13Z</time>
      </trkpt>
      <trkpt lat="44.36058" lon="4.13476">
        <ele>414.95</ele>
        <time>2022-03-17T16:54:14Z</time>
      </trkpt>
      <trkpt lat="44.36057" lon="4.13478">
        <ele>414.47</ele>
        <time>2022-03-17T16:54:25Z</time>
      </trkpt>
      <trkpt lat="44.36058" lon="4.13477">
        <ele>413.98</ele>
        <time>2022-03-17T16:54:47Z</time>
      </trkpt>
      <trkpt lat="44.36057" lon="4.13477">
        <ele>413.98</ele>
        <time>2022-03-17T16:54:56Z</time>
      </trkpt>
      <trkpt lat="44.36057" lon="4.13477">
        <ele>413.98</ele>
        <time>2022-03-17T16:55:05Z</time>
      </trkpt>
    </trkseg>
  </trk>
</gpx>